Wetterdaten: Samstag, 27.06.2020
Datum Zeit Temp. Aussen Temp. o. S. Temp +5cm Feuchte Auss Luftdruck Regen Sonnenschein Regendauer Solar Windben Empfang
27.06.2020 00:00 22,7 C 20,6 C 20,6 C 76 % 1010,8 hPa 0,0 l/m 0 min 2 min 0 W/m 3,2 km/h (1 Bft) 97,87 %
27.06.2020 00:02 22,6 C 20,6 C 20,6 C 76 % 1010,7 hPa 0,0 l/m 0 min 0 min 0 W/m 0,0 km/h (0 Bft) 93,48 %
27.06.2020 00:04 22,6 C 20,6 C 20,6 C 76 % 1010,8 hPa 0,0 l/m 0 min 0 min 0 W/m 3,2 km/h (1 Bft) 97,87 %
27.06.2020 00:08 22,5 C 20,6 C 20,6 C 77 % 1010,8 hPa 0,0 l/m 0 min 4 min 0 W/m 9,7 km/h (2 Bft) 97,85 %
27.06.2020 00:10 22,5 C 20,6 C 20,6 C 77 % 1010,8 hPa 0,0 l/m 0 min 0 min 0 W/m 3,2 km/h (1 Bft) 100,00 %
27.06.2020 00:12 22,4 C 20,6 C 20,6 C 78 % 1010,8 hPa 0,0 l/m 0 min 0 min 0 W/m 3,2 km/h (1 Bft) 100,00 %
27.06.2020 00:14 22,4 C 20,6 C 20,6 C 78 % 1010,7 hPa 0,0 l/m 0 min 0 min 0 W/m 3,2 km/h (1 Bft) 100,00 %
27.06.2020 00:16 22,4 C 20,0 C 20,6 C 78 % 1010,7 hPa 0,0 l/m 0 min 0 min 0 W/m 0,0 km/h (0 Bft) 100,00 %
27.06.2020 00:18 22,3 C 20,0 C 20,6 C 78 % 1010,7 hPa 0,0 l/m 0 min 2 min 0 W/m 3,2 km/h (1 Bft) 97,87 %
27.06.2020 00:20 22,3 C 20,6 C 20,6 C 78 % 1010,7 hPa 0,0 l/m 0 min 0 min 0 W/m 9,7 km/h (2 Bft) 100,00 %
27.06.2020 00:22 22,3 C 20,6 C 20,6 C 78 % 1010,6 hPa 0,0 l/m 0 min 0 min 0 W/m 3,2 km/h (1 Bft) 95,74 %
27.06.2020 00:24 22,2 C 20,0 C 20,6 C 78 % 1010,6 hPa 0,0 l/m 0 min 2 min 0 W/m 6,4 km/h (2 Bft) 97,44 %
27.06.2020 00:26 22,2 C 20,0 C 20,6 C 78 % 1010,6 hPa 0,0 l/m 0 min 0 min 0 W/m 0,0 km/h (0 Bft) 100,00 %
27.06.2020 00:28 22,2 C 20,6 C 20,6 C 78 % 1010,6 hPa 0,0 l/m 0 min 0 min 0 W/m 0,0 km/h (0 Bft) 97,92 %
27.06.2020 00:30 22,2 C 20,6 C 20,6 C 79 % 1010,6 hPa 0,0 l/m 0 min 0 min 0 W/m 6,4 km/h (2 Bft) 100,00 %
27.06.2020 00:32 22,1 C 20,0 C 20,6 C 79 % 1010,6 hPa 0,0 l/m 0 min 0 min 0 W/m 0,0 km/h (0 Bft) 97,83 %
27.06.2020 00:34 22,1 C 20,0 C 20,6 C 79 % 1010,5 hPa 0,0 l/m 0 min 2 min 0 W/m 3,2 km/h (1 Bft) 97,87 %
27.06.2020 00:36 22,1 C 20,0 C 20,6 C 79 % 1010,5 hPa 0,0 l/m 0 min 0 min 0 W/m 3,2 km/h (1 Bft) 100,00 %
27.06.2020 00:38 22,1 C 20,0 C 20,6 C 79 % 1010,5 hPa 0,0 l/m 0 min 2 min 0 W/m 6,4 km/h (2 Bft) 100,00 %
27.06.2020 00:40 22,0 C 20,0 C 20,0 C 79 % 1010,5 hPa 0,0 l/m 0 min 2 min 0 W/m 3,2 km/h (1 Bft) 100,00 %
27.06.2020 00:42 22,0 C 20,0 C 20,0 C 80 % 1010,5 hPa 0,0 l/m 0 min 2 min 0 W/m 3,2 km/h (1 Bft) 100,00 %
27.06.2020 00:44 22,0 C 20,0 C 20,0 C 80 % 1010,7 hPa 0,0 l/m 0 min 2 min 0 W/m 3,2 km/h (1 Bft) 100,00 %
27.06.2020 00:46 21,9 C 19,4 C 20,0 C 81 % 1010,8 hPa 0,0 l/m 0 min 2 min 0 W/m 12,9 km/h (3 Bft) 100,00 %
27.06.2020 00:48 21,9 C 19,4 C 20,0 C 81 % 1010,7 hPa 0,0 l/m 0 min 2 min 0 W/m 3,2 km/h (1 Bft) 100,00 %
27.06.2020 00:50 21,9 C 18,9 C 20,0 C 81 % 1010,8 hPa 0,0 l/m 0 min 2 min 0 W/m 0,0 km/h (0 Bft) 100,00 %
27.06.2020 00:52 21,8 C 18,9 C 19,4 C 81 % 1010,8 hPa 0,0 l/m 0 min 2 min 0 W/m 3,2 km/h (1 Bft) 100,00 %
27.06.2020 00:54 21,8 C 18,9 C 19,4 C 81 % 1010,8 hPa 0,0 l/m 0 min 2 min 0 W/m 3,2 km/h (1 Bft) 97,87 %
27.06.2020 00:56 21,8 C 19,4 C 19,4 C 82 % 1010,7 hPa 0,0 l/m 0 min 2 min 0 W/m 3,2 km/h (1 Bft) 97,83 %
27.06.2020 00:58 21,8 C 19,4 C 19,4 C 82 % 1010,7 hPa 0,0 l/m 0 min 0 min 0 W/m 0,0 km/h (0 Bft) 97,87 %
27.06.2020 01:00 21,7 C 19,4 C 19,4 C 82 % 1010,7 hPa 0,0 l/m 0 min 0 min 0 W/m 3,2 km/h (1 Bft) 95,74 %
27.06.2020 01:02 21,7 C 19,4 C 19,4 C 82 % 1010,7 hPa 0,0 l/m 0 min 0 min 0 W/m 0,0 km/h (0 Bft) 97,87 %
27.06.2020 01:04 21,7 C 19,4 C 19,4 C 82 % 1010,7 hPa 0,0 l/m 0 min 2 min 0 W/m 3,2 km/h (1 Bft) 97,87 %
27.06.2020 01:06 21,6 C 19,4 C 19,4 C 83 % 1010,6 hPa 0,0 l/m 0 min 0 min 0 W/m 3,2 km/h (1 Bft) 93,62 %
27.06.2020 01:08 21,6 C 19,4 C 19,4 C 83 % 1010,6 hPa 0,0 l/m 0 min 2 min 0 W/m 6,4 km/h (2 Bft) 95,65 %
27.06.2020 01:10 21,6 C 18,9 C 19,4 C 83 % 1010,5 hPa 0,0 l/m 0 min 2 min 0 W/m 3,2 km/h (1 Bft) 97,87 %
27.06.2020 01:12 21,5 C 18,9 C 19,4 C 83 % 1010,6 hPa 0,0 l/m 0 min 2 min 0 W/m 3,2 km/h (1 Bft) 97,87 %
27.06.2020 01:14 21,4 C 18,9 C 19,4 C 83 % 1010,5 hPa 0,0 l/m 0 min 2 min 0 W/m 3,2 km/h (1 Bft) 97,87 %
27.06.2020 01:16 21,4 C 18,9 C 19,4 C 83 % 1010,4 hPa 0,0 l/m 0 min 2 min 0 W/m 3,2 km/h (1 Bft) 97,87 %
27.06.2020 01:18 21,3 C 18,9 C 19,4 C 83 % 1010,5 hPa 0,0 l/m 0 min 2 min 0 W/m 3,2 km/h (1 Bft) 97,83 %
27.06.2020 01:20 21,3 C 18,9 C 19,4 C 83 % 1010,4 hPa 0,0 l/m 0 min 0 min 0 W/m 0,0 km/h (0 Bft) 97,87 %
27.06.2020 01:22 21,3 C 18,9 C 19,4 C 83 % 1010,4 hPa 0,0 l/m 0 min 0 min 0 W/m 3,2 km/h (1 Bft) 97,87 %
27.06.2020 01:24 21,3 C 18,9 C 19,4 C 83 % 1010,5 hPa 0,0 l/m 0 min 2 min 0 W/m 0,0 km/h (0 Bft) 95,74 %
27.06.2020 01:26 21,2 C 18,3 C 19,4 C 83 % 1010,5 hPa 0,0 l/m 0 min 2 min 0 W/m 3,2 km/h (1 Bft) 97,87 %
27.06.2020 01:28 21,2 C 18,3 C 18,9 C 84 % 1010,4 hPa 0,0 l/m 0 min 2 min 0 W/m 0,0 km/h (0 Bft) 95,74 %
27.06.2020 01:30 21,2 C 18,3 C 18,9 C 84 % 1010,4 hPa 0,0 l/m 0 min 0 min 0 W/m 0,0 km/h (0 Bft) 97,83 %
27.06.2020 01:32 21,2 C 18,3 C 18,9 C 84 % 1010,4 hPa 0,0 l/m 0 min 2 min 0 W/m 0,0 km/h (0 Bft) 97,87 %
27.06.2020 01:34 21,1 C 18,3 C 18,9 C 84 % 1010,5 hPa 0,0 l/m 0 min 0 min 0 W/m 0,0 km/h (0 Bft) 97,87 %
27.06.2020 01:36 21,1 C 18,3 C 18,9 C 85 % 1010,4 hPa 0,0 l/m 0 min 0 min 0 W/m 3,2 km/h (1 Bft) 95,74 %
27.06.2020 01:38 21,1 C 18,3 C 18,9 C 85 % 1010,4 hPa 0,0 l/m 0 min 0 min 0 W/m 3,2 km/h (1 Bft) 95,74 %
27.06.2020 01:40 21,1 C 18,3 C 18,9 C 85 % 1010,4 hPa 0,0 l/m 0 min 0 min 0 W/m 3,2 km/h (1 Bft) 97,87 %
27.06.2020 01:42 21,1 C 18,9 C 18,9 C 85 % 1010,5 hPa 0,0 l/m 0 min 0 min 0 W/m 3,2 km/h (1 Bft) 93,48 %
27.06.2020 01:44 21,1 C 18,9 C 18,9 C 85 % 1010,5 hPa 0,0 l/m 0 min 0 min 0 W/m 3,2 km/h (1 Bft) 100,00 %
27.06.2020 01:46 21,1 C 18,9 C 18,9 C 85 % 1010,4 hPa 0,0 l/m 0 min 0 min 0 W/m 3,2 km/h (1 Bft) 97,87 %
27.06.2020 01:48 21,0 C 18,9 C 18,9 C 85 % 1010,4 hPa 0,0 l/m 0 min 0 min 0 W/m 6,4 km/h (2 Bft) 97,87 %
27.06.2020 01:50 20,9 C 18,9 C 18,9 C 85 % 1010,3 hPa 0,0 l/m 0 min 0 min 0 W/m 3,2 km/h (1 Bft) 93,62 %
27.06.2020 01:52 20,9 C 18,9 C 18,9 C 85 % 1010,2 hPa 0,0 l/m 0 min 0 min 0 W/m 0,0 km/h (0 Bft) 97,87 %
27.06.2020 01:54 20,9 C 18,9 C 18,9 C 86 % 1010,1 hPa 0,0 l/m 0 min 0 min 0 W/m 6,4 km/h (2 Bft) 95,65 %
27.06.2020 01:56 20,9 C 18,9 C 18,9 C 86 % 1010,0 hPa 0,0 l/m 0 min 0 min 0 W/m 3,2 km/h (1 Bft) 97,87 %
27.06.2020 01:58 20,8 C 18,9 C 18,9 C 86 % 1010,0 hPa 0,0 l/m 0 min 0 min 0 W/m 3,2 km/h (1 Bft) 95,74 %
27.06.2020 02:00 20,8 C 18,9 C 18,9 C 86 % 1010,0 hPa 0,0 l/m 0 min 0 min 0 W/m 3,2 km/h (1 Bft) 97,87 %
27.06.2020 02:02 20,8 C 18,9 C 18,9 C 86 % 1009,9 hPa 0,0 l/m 0 min 0 min 0 W/m 3,2 km/h (1 Bft) 95,74 %
27.06.2020 02:04 20,8 C 18,9 C 18,9 C 86 % 1009,9 hPa 0,0 l/m 0 min 0 min 0 W/m 6,4 km/h (2 Bft) 97,87 %
27.06.2020 02:06 20,7 C 18,9 C 18,9 C 86 % 1009,8 hPa 0,0 l/m 0 min 0 min 0 W/m 6,4 km/h (2 Bft) 97,83 %
27.06.2020 02:08 20,7 C 18,9 C 18,9 C 87 % 1009,8 hPa 0,0 l/m 0 min 0 min 0 W/m 6,4 km/h (2 Bft) 97,87 %
27.06.2020 02:10 20,7 C 18,9 C 18,9 C 87 % 1009,7 hPa 0,0 l/m 0 min 0 min 0 W/m 6,4 km/h (2 Bft) 97,87 %
27.06.2020 02:12 20,7 C 18,9 C 18,9 C 87 % 1009,8 hPa 0,0 l/m 0 min 0 min 0 W/m 6,4 km/h (2 Bft) 95,74 %
27.06.2020 02:14 20,6 C 18,9 C 18,9 C 87 % 1009,7 hPa 0,0 l/m 0 min 0 min 0 W/m 3,2 km/h (1 Bft) 97,87 %
27.06.2020 02:16 20,6 C 18,9 C 18,9 C 87 % 1009,7 hPa 0,0 l/m 0 min 0 min 0 W/m 6,4 km/h (2 Bft) 97,83 %
27.06.2020 02:18 20,6 C 19,4 C 18,9 C 87 % 1009,7 hPa 0,0 l/m 0 min 0 min 0 W/m 6,4 km/h (2 Bft) 97,87 %
27.06.2020 02:20 20,5 C 19,4 C 18,9 C 87 % 1009,7 hPa 0,0 l/m 0 min 0 min 0 W/m 6,4 km/h (2 Bft) 97,87 %
27.06.2020 02:22 20,5 C 18,9 C 18,9 C 87 % 1009,8 hPa 0,0 l/m 0 min 0 min 0 W/m 6,4 km/h (2 Bft) 97,87 %
27.06.2020 02:24 20,4 C 18,9 C 18,9 C 87 % 1009,8 hPa 0,0 l/m 0 min 0 min 0 W/m 3,2 km/h (1 Bft) 97,87 %
27.06.2020 02:26 20,4 C 18,9 C 18,9 C 87 % 1009,8 hPa 0,0 l/m 0 min 0 min 0 W/m 3,2 km/h (1 Bft) 95,74 %
27.06.2020 02:28 20,4 C 18,9 C 18,9 C 87 % 1009,8 hPa 0,0 l/m 0 min 0 min 0 W/m 6,4 km/h (2 Bft) 93,48 %
27.06.2020 02:30 20,4 C 18,9 C 18,9 C 87 % 1009,8 hPa 0,0 l/m 0 min 0 min 0 W/m 3,2 km/h (1 Bft) 97,87 %
27.06.2020 02:32 20,4 C 18,9 C 18,9 C 87 % 1009,9 hPa 0,0 l/m 0 min 0 min 0 W/m 3,2 km/h (1 Bft) 97,87 %
27.06.2020 02:34 20,4 C 18,9 C 18,9 C 87 % 1010,0 hPa 0,0 l/m 0 min 0 min 0 W/m 3,2 km/h (1 Bft) 100,00 %
27.06.2020 02:36 20,4 C 18,9 C 18,9 C 87 % 1009,9 hPa 0,0 l/m 0 min 0 min 0 W/m 6,4 km/h (2 Bft) 95,74 %
27.06.2020 02:38 20,4 C 18,9 C 18,9 C 88 % 1009,9 hPa 0,0 l/m 0 min 0 min 0 W/m 12,9 km/h (3 Bft) 100,00 %
27.06.2020 02:40 20,3 C 18,9 C 18,9 C 88 % 1009,9 hPa 0,0 l/m 0 min 0 min 0 W/m 6,4 km/h (2 Bft) 100,00 %
27.06.2020 02:42 20,3 C 18,9 C 18,9 C 88 % 1010,0 hPa 0,0 l/m 0 min 0 min 0 W/m 12,9 km/h (3 Bft) 100,00 %
27.06.2020 02:44 20,3 C 18,9 C 18,9 C 88 % 1010,0 hPa 0,0 l/m 0 min 0 min 0 W/m 6,4 km/h (2 Bft) 95,74 %
27.06.2020 02:46 20,3 C 18,9 C 18,9 C 88 % 1010,0 hPa 0,0 l/m 0 min 0 min 0 W/m 3,2 km/h (1 Bft) 97,87 %
27.06.2020 02:48 20,3 C 18,9 C 18,9 C 88 % 1010,1 hPa 0,0 l/m 0 min 0 min 0 W/m 12,9 km/h (3 Bft) 97,87 %
27.06.2020 02:50 20,3 C 18,9 C 18,9 C 88 % 1010,1 hPa 0,0 l/m 0 min 0 min 0 W/m 3,2 km/h (1 Bft) 97,87 %
27.06.2020 02:52 20,3 C 18,9 C 18,9 C 88 % 1010,1 hPa 0,0 l/m 0 min 0 min 0 W/m 16,1 km/h (3 Bft) 97,83 %
27.06.2020 02:54 20,3 C 18,9 C 18,9 C 88 % 1010,2 hPa 0,0 l/m 0 min 0 min 0 W/m 16,1 km/h (3 Bft) 97,87 %
27.06.2020 02:56 20,3 C 18,9 C 18,9 C 88 % 1010,2 hPa 0,0 l/m 0 min 0 min 0 W/m 3,2 km/h (1 Bft) 95,74 %
27.06.2020 02:58 20,3 C 18,9 C 18,9 C 88 % 1010,1 hPa 0,0 l/m 0 min 0 min 0 W/m 6,4 km/h (2 Bft) 95,74 %
27.06.2020 03:00 20,3 C 18,9 C 18,9 C 88 % 1010,1 hPa 0,0 l/m 0 min 0 min 0 W/m 3,2 km/h (1 Bft) 97,87 %
27.06.2020 03:02 20,3 C 18,9 C 18,9 C 88 % 1010,2 hPa 0,0 l/m 0 min 0 min 0 W/m 12,9 km/h (3 Bft) 95,74 %
27.06.2020 03:04 20,2 C 18,9 C 18,9 C 88 % 1010,2 hPa 0,0 l/m 0 min 0 min 0 W/m 3,2 km/h (1 Bft) 98,04 %
27.06.2020 03:06 20,3 C 18,9 C 18,9 C 88 % 1010,2 hPa 0,0 l/m 0 min 0 min 0 W/m 3,2 km/h (1 Bft) 95,74 %
27.06.2020 03:08 20,2 C 18,9 C 18,9 C 88 % 1010,2 hPa 0,0 l/m 0 min 0 min 0 W/m 6,4 km/h (2 Bft) 97,87 %
27.06.2020 03:10 20,2 C 18,9 C 18,9 C 88 % 1010,0 hPa 0,0 l/m 0 min 0 min 0 W/m 3,2 km/h (1 Bft) 97,87 %
27.06.2020 03:12 20,2 C 18,9 C 18,9 C 88 % 1010,0 hPa 0,0 l/m 0 min 0 min 0 W/m 3,2 km/h (1 Bft) 97,83 %
27.06.2020 03:14 20,2 C 18,9 C 18,9 C 88 % 1010,1 hPa 0,0 l/m 0 min 0 min 0 W/m 3,2 km/h (1 Bft) 97,87 %
27.06.2020 03:16 20,2 C 18,9 C 18,9 C 88 % 1010,1 hPa 0,0 l/m 0 min 0 min 0 W/m 3,2 km/h (1 Bft) 95,74 %
27.06.2020 03:18 20,2 C 18,9 C 18,9 C 88 % 1010,1 hPa 0,0 l/m 0 min 0 min 0 W/m 6,4 km/h (2 Bft) 97,87 %
27.06.2020 03:20 20,2 C 18,9 C 18,9 C 88 % 1010,0 hPa 0,0 l/m 0 min 0 min 0 W/m 3,2 km/h (1 Bft) 97,87 %
27.06.2020 03:22 20,2 C 18,9 C 18,9 C 88 % 1010,0 hPa 0,0 l/m 0 min 0 min 0 W/m 16,1 km/h (3 Bft) 97,87 %
27.06.2020 03:24 20,2 C 18,9 C 18,9 C 88 % 1010,0 hPa 0,0 l/m 0 min 0 min 0 W/m 0,0 km/h (0 Bft) 97,83 %
27.06.2020 03:26 20,2 C 18,9 C 18,9 C 88 % 1010,0 hPa 0,0 l/m 0 min 0 min 0 W/m 3,2 km/h (1 Bft) 97,87 %
27.06.2020 03:28 20,2 C 18,9 C 18,9 C 88 % 1009,9 hPa 0,0 l/m 0 min 0 min 0 W/m 3,2 km/h (1 Bft) 97,87 %
27.06.2020 03:30 20,2 C 18,9 C 18,9 C 88 % 1009,9 hPa 0,0 l/m 0 min 0 min 0 W/m 3,2 km/h (1 Bft) 97,87 %
27.06.2020 03:32 20,2 C 18,9 C 18,9 C 88 % 1009,9 hPa 0,0 l/m 0 min 0 min 0 W/m 3,2 km/h (1 Bft) 97,92 %
27.06.2020 03:34 20,2 C 18,9 C 18,9 C 88 % 1009,9 hPa 0,0 l/m 0 min 0 min 0 W/m 0,0 km/h (0 Bft) 95,65 %
27.06.2020 03:36 20,2 C 18,9 C 18,9 C 88 % 1009,9 hPa 0,0 l/m 0 min 0 min 0 W/m 0,0 km/h (0 Bft) 97,87 %
27.06.2020 03:38 20,2 C 18,9 C 18,9 C 88 % 1009,8 hPa 0,0 l/m 0 min 0 min 0 W/m 0,0 km/h (0 Bft) 95,74 %
27.06.2020 03:40 20,2 C 18,9 C 18,9 C 88 % 1009,8 hPa 0,0 l/m 0 min 0 min 0 W/m 3,2 km/h (1 Bft) 95,74 %
27.06.2020 03:42 20,2 C 18,9 C 18,9 C 88 % 1009,8 hPa 0,0 l/m 0 min 0 min 0 W/m 6,4 km/h (2 Bft) 93,62 %
27.06.2020 03:44 20,2 C 18,9 C 18,9 C 88 % 1009,7 hPa 0,0 l/m 0 min 0 min 0 W/m 12,9 km/h (3 Bft) 95,74 %
27.06.2020 03:46 20,1 C 18,9 C 18,9 C 88 % 1009,7 hPa 0,0 l/m 0 min 0 min 0 W/m 0,0 km/h (0 Bft) 95,65 %
27.06.2020 03:48 20,1 C 18,9 C 18,9 C 88 % 1009,7 hPa 0,0 l/m 0 min 0 min 0 W/m 3,2 km/h (1 Bft) 97,87 %
27.06.2020 03:50 20,1 C 18,9 C 18,9 C 88 % 1009,7 hPa 0,0 l/m 0 min 0 min 0 W/m 6,4 km/h (2 Bft) 97,87 %
27.06.2020 03:52 20,1 C 18,9 C 18,9 C 88 % 1009,7 hPa 0,0 l/m 0 min 0 min 0 W/m 0,0 km/h (0 Bft) 95,74 %
27.06.2020 03:54 20,1 C 18,9 C 18,9 C 88 % 1009,6 hPa 0,0 l/m 0 min 0 min 0 W/m 6,4 km/h (2 Bft) 97,87 %
27.06.2020 03:56 20,1 C 18,9 C 18,9 C 88 % 1009,7 hPa 0,0 l/m 0 min 0 min 0 W/m 16,1 km/h (3 Bft) 97,87 %
27.06.2020 03:58 20,1 C 18,9 C 18,9 C 88 % 1009,7 hPa 0,0 l/m 0 min 0 min 0 W/m 12,9 km/h (3 Bft) 95,65 %
27.06.2020 04:00 20,1 C 18,9 C 18,9 C 88 % 1009,7 hPa 0,0 l/m 0 min 0 min 0 W/m 6,4 km/h (2 Bft) 95,74 %
27.06.2020 04:02 20,1 C 18,9 C 18,9 C 88 % 1009,7 hPa 0,0 l/m 0 min 0 min 0 W/m 6,4 km/h (2 Bft) 100,00 %
27.06.2020 04:04 20,1 C 18,9 C 18,9 C 88 % 1009,7 hPa 0,0 l/m 0 min 0 min 0 W/m 12,9 km/h (3 Bft) 97,87 %
27.06.2020 04:06 20,1 C 18,9 C 18,9 C 88 % 1009,8 hPa 0,0 l/m 0 min 0 min 0 W/m 6,4 km/h (2 Bft) 97,87 %
27.06.2020 04:08 20,0 C 18,9 C 18,9 C 88 % 1009,9 hPa 0,0 l/m 0 min 0 min 0 W/m 6,4 km/h (2 Bft) 95,74 %
27.06.2020 04:10 20,0 C 18,9 C 18,9 C 87 % 1009,8 hPa 0,0 l/m 0 min 0 min 0 W/m 3,2 km/h (1 Bft) 97,83 %
27.06.2020 04:12 20,0 C 18,9 C 18,9 C 87 % 1009,9 hPa 0,0 l/m 0 min 0 min 0 W/m 6,4 km/h (2 Bft) 95,74 %
27.06.2020 04:14 20,0 C 18,9 C 18,9 C 87 % 1009,9 hPa 0,0 l/m 0 min 0 min 0 W/m 6,4 km/h (2 Bft) 95,74 %
27.06.2020 04:16 20,0 C 18,9 C 18,9 C 87 % 1009,9 hPa 0,0 l/m 0 min 0 min 0 W/m 3,2 km/h (1 Bft) 97,87 %
27.06.2020 04:18 20,0 C 18,9 C 18,9 C 87 % 1009,8 hPa 0,0 l/m 0 min 0 min 0 W/m 3,2 km/h (1 Bft) 95,74 %
27.06.2020 04:20 20,0 C 18,9 C 18,9 C 87 % 1009,9 hPa 0,0 l/m 0 min 0 min 0 W/m 6,4 km/h (2 Bft) 97,87 %
27.06.2020 04:22 20,0 C 18,9 C 18,9 C 87 % 1009,8 hPa 0,0 l/m 0 min 0 min 0 W/m 6,4 km/h (2 Bft) 95,65 %
27.06.2020 04:24 20,0 C 18,9 C 18,9 C 87 % 1009,8 hPa 0,0 l/m 0 min 0 min 0 W/m 6,4 km/h (2 Bft) 95,74 %
27.06.2020 04:26 20,0 C 18,9 C 18,9 C 87 % 1009,8 hPa 0,0 l/m 0 min 0 min 0 W/m 6,4 km/h (2 Bft) 97,87 %
27.06.2020 04:28 20,0 C 18,9 C 18,9 C 87 % 1009,8 hPa 0,0 l/m 0 min 0 min 0 W/m 3,2 km/h (1 Bft) 97,87 %
27.06.2020 04:30 20,0 C 18,9 C 18,9 C 87 % 1009,8 hPa 0,0 l/m 0 min 0 min 0 W/m 6,4 km/h (2 Bft) 100,00 %
27.06.2020 04:32 20,0 C 18,9 C 18,9 C 87 % 1009,8 hPa 0,0 l/m 0 min 0 min 0 W/m 3,2 km/h (1 Bft) 94,74 %
27.06.2020 04:34 20,0 C 18,9 C 18,9 C 87 % 1009,8 hPa 0,0 l/m 0 min 0 min 0 W/m 3,2 km/h (1 Bft) 97,87 %
27.06.2020 04:36 20,0 C 18,9 C 18,9 C 87 % 1009,7 hPa 0,0 l/m 0 min 0 min 0 W/m 3,2 km/h (1 Bft) 97,83 %
27.06.2020 04:38 20,0 C 18,9 C 18,9 C 87 % 1009,6 hPa 0,0 l/m 0 min 0 min 0 W/m 3,2 km/h (1 Bft) 97,87 %
27.06.2020 04:40 20,0 C 18,9 C 18,9 C 87 % 1009,6 hPa 0,0 l/m 0 min 0 min 0 W/m 6,4 km/h (2 Bft) 93,62 %
27.06.2020 04:42 20,0 C 18,9 C 18,9 C 87 % 1009,6 hPa 0,0 l/m 0 min 0 min 0 W/m 6,4 km/h (2 Bft) 97,87 %
27.06.2020 04:44 20,0 C 18,9 C 18,9 C 87 % 1009,6 hPa 0,0 l/m 0 min 0 min 0 W/m 0,0 km/h (0 Bft) 97,87 %
27.06.2020 04:46 20,0 C 18,9 C 18,9 C 87 % 1009,6 hPa 0,0 l/m 0 min 0 min 0 W/m 12,9 km/h (3 Bft) 97,87 %
27.06.2020 04:48 20,0 C 18,9 C 18,9 C 87 % 1009,6 hPa 0,0 l/m 0 min 0 min 0 W/m 3,2 km/h (1 Bft) 97,87 %
27.06.2020 04:50 20,0 C 18,9 C 18,9 C 87 % 1009,7 hPa 0,0 l/m 0 min 0 min 0 W/m 3,2 km/h (1 Bft) 97,83 %
27.06.2020 04:52 20,0 C 18,9 C 18,9 C 87 % 1009,7 hPa 0,0 l/m 0 min 0 min 0 W/m 6,4 km/h (2 Bft) 97,87 %
27.06.2020 04:54 20,0 C 18,9 C 18,9 C 87 % 1009,7 hPa 0,0 l/m 0 min 0 min 0 W/m 12,9 km/h (3 Bft) 97,87 %
27.06.2020 04:56 19,9 C 18,9 C 18,9 C 87 % 1009,7 hPa 0,0 l/m 0 min 0 min 0 W/m 3,2 km/h (1 Bft) 97,87 %
27.06.2020 04:58 19,9 C 18,9 C 18,9 C 87 % 1009,7 hPa 0,0 l/m 0 min 0 min 0 W/m 0,0 km/h (0 Bft) 95,74 %
27.06.2020 05:00 19,9 C 18,9 C 18,9 C 87 % 1009,7 hPa 0,0 l/m 0 min 0 min 0 W/m 3,2 km/h (1 Bft) 95,65 %
27.06.2020 05:02 19,9 C 18,9 C 18,9 C 87 % 1009,7 hPa 0,0 l/m 0 min 0 min 0 W/m 0,0 km/h (0 Bft) 97,87 %
27.06.2020 05:04 19,9 C 18,9 C 18,9 C 87 % 1009,7 hPa 0,0 l/m 0 min 0 min 0 W/m 12,9 km/h (3 Bft) 97,87 %
27.06.2020 05:06 19,9 C 18,9 C 18,9 C 87 % 1009,7 hPa 0,0 l/m 0 min 0 min 0 W/m 3,2 km/h (1 Bft) 97,87 %
27.06.2020 05:08 19,9 C 18,9 C 18,9 C 87 % 1009,7 hPa 0,0 l/m 0 min 0 min 0 W/m 12,9 km/h (3 Bft) 97,87 %
27.06.2020 05:10 19,9 C 18,9 C 18,3 C 88 % 1009,7 hPa 0,0 l/m 0 min 0 min 0 W/m 3,2 km/h (1 Bft) 97,87 %
27.06.2020 05:12 19,9 C 18,9 C 18,3 C 88 % 1009,8 hPa 0,0 l/m 0 min 0 min 0 W/m 3,2 km/h (1 Bft) 97,83 %
27.06.2020 05:14 19,9 C 18,9 C 18,3 C 88 % 1009,8 hPa 0,0 l/m 0 min 0 min 0 W/m 3,2 km/h (1 Bft) 95,74 %
27.06.2020 05:16 19,9 C 18,9 C 18,3 C 88 % 1009,8 hPa 0,0 l/m 0 min 0 min 0 W/m 3,2 km/h (1 Bft) 97,87 %
27.06.2020 05:18 19,8 C 18,9 C 18,3 C 88 % 1009,7 hPa 0,0 l/m 0 min 0 min 4 W/m 3,2 km/h (1 Bft) 97,87 %
27.06.2020 05:20 19,8 C 18,9 C 18,3 C 88 % 1009,6 hPa 0,0 l/m 0 min 0 min 5 W/m 3,2 km/h (1 Bft) 97,87 %
27.06.2020 05:22 19,8 C 18,9 C 18,3 C 88 % 1009,5 hPa 0,0 l/m 0 min 0 min 6 W/m 6,4 km/h (2 Bft) 97,87 %
27.06.2020 05:24 19,8 C 18,9 C 18,3 C 88 % 1009,5 hPa 0,0 l/m 0 min 0 min 7 W/m 3,2 km/h (1 Bft) 95,65 %
27.06.2020 05:26 19,8 C 18,9 C 18,3 C 88 % 1009,6 hPa 0,0 l/m 0 min 0 min 7 W/m 0,0 km/h (0 Bft) 97,87 %
27.06.2020 05:28 19,8 C 18,3 C 18,3 C 88 % 1009,5 hPa 0,0 l/m 0 min 0 min 7 W/m 0,0 km/h (0 Bft) 100,00 %
27.06.2020 05:30 19,8 C 18,3 C 18,3 C 88 % 1009,5 hPa 0,0 l/m 0 min 0 min 9 W/m 6,4 km/h (2 Bft) 100,00 %
27.06.2020 05:32 19,8 C 18,3 C 18,3 C 88 % 1009,4 hPa 0,0 l/m 0 min 0 min 9 W/m 3,2 km/h (1 Bft) 100,00 %
27.06.2020 05:34 19,8 C 18,3 C 18,3 C 88 % 1009,3 hPa 0,0 l/m 0 min 0 min 9 W/m 0,0 km/h (0 Bft) 100,00 %
27.06.2020 05:36 19,8 C 18,3 C 18,3 C 88 % 1009,4 hPa 0,0 l/m 0 min 0 min 11 W/m 3,2 km/h (1 Bft) 100,00 %
27.06.2020 05:38 19,7 C 18,3 C 18,3 C 88 % 1009,5 hPa 0,0 l/m 0 min 0 min 12 W/m 3,2 km/h (1 Bft) 100,00 %
27.06.2020 05:40 19,7 C 18,3 C 18,3 C 88 % 1009,4 hPa 0,0 l/m 0 min 0 min 12 W/m 3,2 km/h (1 Bft) 100,00 %
27.06.2020 05:42 19,7 C 18,3 C 18,3 C 88 % 1009,4 hPa 0,0 l/m 0 min 0 min 13 W/m 6,4 km/h (2 Bft) 100,00 %
27.06.2020 05:44 19,7 C 18,3 C 18,3 C 88 % 1009,5 hPa 0,0 l/m 0 min 0 min 15 W/m 3,2 km/h (1 Bft) 100,00 %
27.06.2020 05:46 19,7 C 18,3 C 18,3 C 88 % 1009,5 hPa 0,0 l/m 0 min 0 min 18 W/m 0,0 km/h (0 Bft) 100,00 %
27.06.2020 05:48 19,7 C 18,3 C 18,3 C 88 % 1009,6 hPa 0,0 l/m 0 min 0 min 19 W/m 3,2 km/h (1 Bft) 100,00 %
27.06.2020 05:50 19,7 C 18,3 C 18,3 C 88 % 1009,6 hPa 0,0 l/m 0 min 0 min 20 W/m 0,0 km/h (0 Bft) 100,00 %
27.06.2020 05:52 19,7 C 18,9 C 18,3 C 88 % 1009,6 hPa 0,0 l/m 0 min 0 min 22 W/m 3,2 km/h (1 Bft) 100,00 %
27.06.2020 05:54 19,6 C 18,9 C 18,3 C 88 % 1009,6 hPa 0,0 l/m 0 min 0 min 25 W/m 0,0 km/h (0 Bft) 100,00 %
27.06.2020 05:56 19,6 C 18,9 C 18,3 C 88 % 1009,6 hPa 0,0 l/m 0 min 0 min 26 W/m 3,2 km/h (1 Bft) 100,00 %
27.06.2020 05:58 19,6 C 18,9 C 18,3 C 89 % 1009,6 hPa 0,0 l/m 0 min 0 min 30 W/m 3,2 km/h (1 Bft) 100,00 %
27.06.2020 06:00 19,6 C 18,9 C 18,3 C 89 % 1009,7 hPa 0,0 l/m 0 min 0 min 33 W/m 3,2 km/h (1 Bft) 100,00 %
27.06.2020 06:02 19,6 C 18,9 C 18,3 C 89 % 1009,6 hPa 0,0 l/m 0 min 0 min 33 W/m 3,2 km/h (1 Bft) 100,00 %
27.06.2020 06:04 19,6 C 18,9 C 18,3 C 89 % 1009,6 hPa 0,0 l/m 0 min 0 min 35 W/m 3,2 km/h (1 Bft) 100,00 %
27.06.2020 06:08 19,6 C 18,9 C 18,3 C 89 % 1009,7 hPa 0,0 l/m 0 min 0 min 42 W/m 3,2 km/h (1 Bft) 98,94 %
27.06.2020 06:10 19,6 C 18,9 C 18,3 C 89 % 1009,8 hPa 0,0 l/m 2 min 0 min 49 W/m 3,2 km/h (1 Bft) 100,00 %
27.06.2020 06:12 19,6 C 18,9 C 18,3 C 89 % 1009,8 hPa 0,0 l/m 0 min 0 min 48 W/m 0,0 km/h (0 Bft) 100,00 %
27.06.2020 06:14 19,6 C 18,9 C 18,9 C 89 % 1009,8 hPa 0,0 l/m 0 min 0 min 46 W/m 0,0 km/h (0 Bft) 97,87 %
27.06.2020 06:16 19,6 C 18,9 C 18,9 C 89 % 1009,8 hPa 0,0 l/m 0 min 0 min 42 W/m 0,0 km/h (0 Bft) 100,00 %
27.06.2020 06:18 19,6 C 18,9 C 18,9 C 89 % 1009,8 hPa 0,0 l/m 0 min 0 min 40 W/m 3,2 km/h (1 Bft) 97,87 %
27.06.2020 06:20 19,7 C 18,9 C 18,9 C 89 % 1009,7 hPa 0,0 l/m 0 min 0 min 40 W/m 6,4 km/h (2 Bft) 97,87 %
27.06.2020 06:22 19,6 C 18,9 C 18,9 C 89 % 1009,7 hPa 0,0 l/m 0 min 0 min 41 W/m 3,2 km/h (1 Bft) 95,65 %
27.06.2020 06:24 19,7 C 18,9 C 18,9 C 89 % 1009,7 hPa 0,0 l/m 0 min 0 min 42 W/m 0,0 km/h (0 Bft) 97,87 %
27.06.2020 06:26 19,7 C 18,9 C 18,9 C 89 % 1009,7 hPa 0,0 l/m 0 min 0 min 44 W/m 0,0 km/h (0 Bft) 95,74 %
27.06.2020 06:28 19,7 C 18,9 C 18,9 C 89 % 1009,7 hPa 0,0 l/m 0 min 0 min 46 W/m 0,0 km/h (0 Bft) 95,74 %
27.06.2020 06:30 19,7 C 18,9 C 18,9 C 89 % 1009,7 hPa 0,0 l/m 0 min 0 min 45 W/m 3,2 km/h (1 Bft) 95,74 %
27.06.2020 06:32 19,7 C 18,9 C 18,9 C 89 % 1009,6 hPa 0,0 l/m 0 min 0 min 42 W/m 12,9 km/h (3 Bft) 95,74 %
27.06.2020 06:34 19,7 C 18,9 C 18,9 C 89 % 1009,7 hPa 0,0 l/m 0 min 0 min 38 W/m 6,4 km/h (2 Bft) 95,65 %
27.06.2020 06:36 19,7 C 18,9 C 18,9 C 89 % 1009,7 hPa 0,0 l/m 0 min 0 min 36 W/m 9,7 km/h (2 Bft) 95,74 %
27.06.2020 06:38 19,7 C 18,9 C 18,9 C 89 % 1009,9 hPa 0,0 l/m 0 min 0 min 35 W/m 6,4 km/h (2 Bft) 93,62 %
27.06.2020 06:40 19,7 C 18,9 C 18,9 C 89 % 1009,9 hPa 0,0 l/m 0 min 0 min 33 W/m 6,4 km/h (2 Bft) 95,74 %
27.06.2020 06:42 19,7 C 18,9 C 18,9 C 89 % 1009,8 hPa 0,0 l/m 0 min 0 min 33 W/m 0,0 km/h (0 Bft) 91,49 %
27.06.2020 06:44 19,8 C 18,9 C 18,9 C 89 % 1009,7 hPa 0,0 l/m 0 min 0 min 35 W/m 16,1 km/h (3 Bft) 95,74 %
27.06.2020 06:46 19,8 C 18,9 C 18,9 C 89 % 1009,8 hPa 0,0 l/m 0 min 0 min 37 W/m 6,4 km/h (2 Bft) 95,65 %
27.06.2020 06:48 19,8 C 18,9 C 18,9 C 89 % 1009,8 hPa 0,0 l/m 0 min 0 min 39 W/m 0,0 km/h (0 Bft) 93,62 %
27.06.2020 06:50 19,8 C 18,9 C 18,3 C 89 % 1009,8 hPa 0,0 l/m 0 min 0 min 40 W/m 6,4 km/h (2 Bft) 95,74 %
27.06.2020 06:52 19,8 C 18,9 C 18,3 C 89 % 1009,9 hPa 0,0 l/m 0 min 0 min 42 W/m 6,4 km/h (2 Bft) 95,74 %
27.06.2020 06:54 19,8 C 18,9 C 18,9 C 89 % 1009,9 hPa 0,0 l/m 0 min 0 min 44 W/m 6,4 km/h (2 Bft) 93,62 %
27.06.2020 06:56 19,8 C 19,4 C 18,9 C 89 % 1009,9 hPa 0,0 l/m 0 min 0 min 46 W/m 12,9 km/h (3 Bft) 95,65 %
27.06.2020 06:58 19,8 C 19,4 C 18,9 C 89 % 1010,0 hPa 0,0 l/m 0 min 0 min 52 W/m 3,2 km/h (1 Bft) 95,74 %
27.06.2020 07:00 19,8 C 19,4 C 18,9 C 89 % 1010,0 hPa 0,0 l/m 0 min 0 min 55 W/m 0,0 km/h (0 Bft) 97,87 %
27.06.2020 07:02 19,8 C 19,4 C 18,9 C 89 % 1010,0 hPa 0,0 l/m 0 min 0 min 57 W/m 6,4 km/h (2 Bft) 95,74 %
27.06.2020 07:04 19,8 C 19,4 C 18,9 C 89 % 1010,0 hPa 0,0 l/m 0 min 0 min 61 W/m 6,4 km/h (2 Bft) 93,62 %
27.06.2020 07:06 19,8 C 19,4 C 18,9 C 89 % 1010,1 hPa 0,0 l/m 0 min 0 min 66 W/m 12,9 km/h (3 Bft) 95,74 %
27.06.2020 07:08 19,8 C 19,4 C 18,9 C 89 % 1010,1 hPa 0,0 l/m 0 min 0 min 69 W/m 3,2 km/h (1 Bft) 95,65 %
27.06.2020 07:10 19,8 C 20,0 C 18,9 C 89 % 1010,0 hPa 0,0 l/m 0 min 0 min 72 W/m 6,4 km/h (2 Bft) 93,62 %
27.06.2020 07:12 19,8 C 20,0 C 18,9 C 89 % 1010,0 hPa 0,0 l/m 0 min 0 min 78 W/m 0,0 km/h (0 Bft) 93,62 %
27.06.2020 07:14 19,9 C 20,0 C 18,9 C 89 % 1010,0 hPa 0,0 l/m 0 min 0 min 85 W/m 6,4 km/h (2 Bft) 97,87 %
27.06.2020 07:16 19,9 C 20,0 C 18,9 C 89 % 1010,0 hPa 0,0 l/m 0 min 0 min 88 W/m 6,4 km/h (2 Bft) 97,87 %
27.06.2020 07:18 19,9 C 20,6 C 19,4 C 89 % 1010,1 hPa 0,0 l/m 0 min 0 min 94 W/m 0,0 km/h (0 Bft) 97,87 %
27.06.2020 07:20 20,0 C 20,6 C 19,4 C 89 % 1010,1 hPa 0,0 l/m 0 min 0 min 101 W/m 12,9 km/h (3 Bft) 97,83 %
27.06.2020 07:22 20,1 C 20,6 C 19,4 C 89 % 1010,1 hPa 0,0 l/m 0 min 0 min 112 W/m 3,2 km/h (1 Bft) 97,87 %
27.06.2020 07:24 20,1 C 20,6 C 19,4 C 89 % 1010,1 hPa 0,0 l/m 0 min 0 min 117 W/m 12,9 km/h (3 Bft) 97,87 %
27.06.2020 07:26 20,1 C 21,1 C 19,4 C 89 % 1010,2 hPa 0,0 l/m 0 min 0 min 117 W/m 0,0 km/h (0 Bft) 97,87 %
27.06.2020 07:28 20,1 C 21,1 C 19,4 C 89 % 1010,2 hPa 0,0 l/m 0 min 0 min 118 W/m 6,4 km/h (2 Bft) 97,87 %
27.06.2020 07:30 20,2 C 21,1 C 20,0 C 89 % 1010,3 hPa 0,0 l/m 0 min 0 min 115 W/m 0,0 km/h (0 Bft) 95,74 %
27.06.2020 07:32 20,2 C 21,1 C 20,0 C 89 % 1010,3 hPa 0,0 l/m 0 min 0 min 108 W/m 6,4 km/h (2 Bft) 97,83 %
27.06.2020 07:34 20,3 C 21,1 C 20,0 C 89 % 1010,3 hPa 0,0 l/m 0 min 0 min 106 W/m 3,2 km/h (1 Bft) 95,74 %
27.06.2020 07:36 20,3 C 21,1 C 20,0 C 89 % 1010,1 hPa 0,0 l/m 0 min 0 min 96 W/m 0,0 km/h (0 Bft) 97,87 %
27.06.2020 07:38 20,4 C 21,1 C 20,0 C 88 % 1010,2 hPa 0,0 l/m 0 min 0 min 88 W/m 6,4 km/h (2 Bft) 97,87 %
27.06.2020 07:40 20,4 C 21,1 C 20,0 C 88 % 1010,1 hPa 0,0 l/m 0 min 0 min 87 W/m 0,0 km/h (0 Bft) 97,87 %
27.06.2020 07:42 20,5 C 21,1 C 20,0 C 88 % 1010,1 hPa 0,0 l/m 0 min 0 min 87 W/m 3,2 km/h (1 Bft) 97,83 %
27.06.2020 07:44 20,6 C 21,1 C 20,0 C 88 % 1010,2 hPa 0,0 l/m 0 min 0 min 86 W/m 3,2 km/h (1 Bft) 97,87 %
27.06.2020 07:46 20,6 C 21,1 C 20,0 C 87 % 1010,2 hPa 0,0 l/m 0 min 0 min 88 W/m 0,0 km/h (0 Bft) 93,62 %
27.06.2020 07:48 20,7 C 21,1 C 20,0 C 87 % 1010,2 hPa 0,0 l/m 0 min 0 min 88 W/m 0,0 km/h (0 Bft) 97,87 %
27.06.2020 07:50 20,7 C 21,1 C 20,0 C 87 % 1010,2 hPa 0,0 l/m 0 min 0 min 90 W/m 3,2 km/h (1 Bft) 97,87 %
27.06.2020 07:52 20,7 C 21,1 C 20,0 C 87 % 1010,2 hPa 0,0 l/m 0 min 0 min 91 W/m 3,2 km/h (1 Bft) 97,87 %
27.06.2020 07:54 20,8 C 21,1 C 20,0 C 86 % 1010,3 hPa 0,0 l/m 0 min 0 min 93 W/m 3,2 km/h (1 Bft) 97,87 %
27.06.2020 07:56 20,8 C 21,1 C 20,0 C 86 % 1010,3 hPa 0,0 l/m 0 min 0 min 95 W/m 3,2 km/h (1 Bft) 97,83 %
27.06.2020 07:58 20,9 C 21,1 C 20,0 C 86 % 1010,2 hPa 0,0 l/m 0 min 0 min 95 W/m 9,7 km/h (2 Bft) 97,87 %
27.06.2020 08:00 20,9 C 21,1 C 20,6 C 86 % 1010,3 hPa 0,0 l/m 0 min 0 min 98 W/m 3,2 km/h (1 Bft) 97,87 %
27.06.2020 08:02 21,0 C 21,1 C 20,6 C 85 % 1010,2 hPa 0,0 l/m 0 min 0 min 98 W/m 3,2 km/h (1 Bft) 97,87 %
27.06.2020 08:04 21,1 C 21,7 C 20,6 C 85 % 1010,2 hPa 0,0 l/m 0 min 0 min 98 W/m 0,0 km/h (0 Bft) 97,87 %
27.06.2020 08:06 21,1 C 21,1 C 20,6 C 85 % 1010,2 hPa 0,0 l/m 0 min 0 min 95 W/m 3,2 km/h (1 Bft) 97,83 %
27.06.2020 08:08 21,1 C 21,1 C 20,6 C 85 % 1010,2 hPa 0,0 l/m 0 min 0 min 92 W/m 3,2 km/h (1 Bft) 95,74 %
27.06.2020 08:10 21,2 C 21,1 C 20,6 C 85 % 1010,1 hPa 0,0 l/m 0 min 0 min 90 W/m 6,4 km/h (2 Bft) 93,62 %
27.06.2020 08:12 21,2 C 21,1 C 20,6 C 85 % 1010,1 hPa 0,0 l/m 0 min 0 min 90 W/m 12,9 km/h (3 Bft) 97,87 %
27.06.2020 08:14 21,3 C 21,1 C 20,6 C 84 % 1010,1 hPa 0,0 l/m 0 min 0 min 87 W/m 12,9 km/h (3 Bft) 97,87 %
27.06.2020 08:16 21,3 C 21,1 C 20,6 C 84 % 1010,1 hPa 0,0 l/m 0 min 0 min 86 W/m 6,4 km/h (2 Bft) 93,62 %
27.06.2020 08:18 21,3 C 21,7 C 20,6 C 83 % 1010,0 hPa 0,0 l/m 0 min 0 min 90 W/m 6,4 km/h (2 Bft) 97,83 %
27.06.2020 08:20 21,4 C 21,7 C 20,6 C 83 % 1010,1 hPa 0,0 l/m 0 min 0 min 98 W/m 0,0 km/h (0 Bft) 95,74 %
27.06.2020 08:22 21,4 C 21,7 C 20,6 C 83 % 1010,1 hPa 0,0 l/m 0 min 0 min 104 W/m 0,0 km/h (0 Bft) 97,87 %
27.06.2020 08:24 21,4 C 21,7 C 20,6 C 83 % 1010,0 hPa 0,0 l/m 0 min 0 min 105 W/m 0,0 km/h (0 Bft) 97,87 %
27.06.2020 08:26 21,5 C 21,7 C 20,6 C 83 % 1010,1 hPa 0,0 l/m 0 min 0 min 105 W/m 12,9 km/h (3 Bft) 100,00 %
27.06.2020 08:28 21,6 C 21,7 C 20,6 C 83 % 1010,0 hPa 0,0 l/m 0 min 0 min 101 W/m 3,2 km/h (1 Bft) 95,74 %
27.06.2020 08:30 21,6 C 21,7 C 20,6 C 83 % 1010,1 hPa 0,0 l/m 0 min 0 min 90 W/m 6,4 km/h (2 Bft) 97,83 %
27.06.2020 08:32 21,6 C 21,7 C 20,6 C 82 % 1010,0 hPa 0,0 l/m 0 min 0 min 83 W/m 9,7 km/h (2 Bft) 95,74 %
27.06.2020 08:34 21,6 C 21,7 C 20,6 C 82 % 1010,1 hPa 0,0 l/m 0 min 0 min 89 W/m 9,7 km/h (2 Bft) 97,87 %
27.06.2020 08:36 21,7 C 21,7 C 20,6 C 82 % 1010,1 hPa 0,0 l/m 0 min 0 min 91 W/m 19,3 km/h (3 Bft) 97,87 %
27.06.2020 08:38 21,7 C 21,7 C 20,6 C 82 % 1010,0 hPa 0,0 l/m 0 min 0 min 89 W/m 12,9 km/h (3 Bft) 100,00 %
27.06.2020 08:40 21,7 C 21,7 C 20,6 C 81 % 1010,1 hPa 0,0 l/m 0 min 0 min 85 W/m 12,9 km/h (3 Bft) 100,00 %
27.06.2020 08:42 21,8 C 21,7 C 20,6 C 81 % 1010,0 hPa 0,0 l/m 0 min 0 min 86 W/m 3,2 km/h (1 Bft) 100,00 %
27.06.2020 08:44 21,8 C 21,7 C 20,6 C 81 % 1010,0 hPa 0,0 l/m 0 min 0 min 91 W/m 16,1 km/h (3 Bft) 100,00 %
27.06.2020 08:46 21,8 C 21,7 C 20,6 C 81 % 1010,0 hPa 0,0 l/m 0 min 0 min 94 W/m 12,9 km/h (3 Bft) 100,00 %
27.06.2020 08:48 21,8 C 21,7 C 20,6 C 81 % 1010,0 hPa 0,0 l/m 0 min 0 min 97 W/m 12,9 km/h (3 Bft) 97,87 %
27.06.2020 08:50 21,9 C 21,7 C 20,6 C 81 % 1010,0 hPa 0,0 l/m 0 min 0 min 98 W/m 3,2 km/h (1 Bft) 100,00 %
27.06.2020 08:52 21,9 C 21,7 C 20,6 C 81 % 1010,0 hPa 0,0 l/m 0 min 0 min 100 W/m 3,2 km/h (1 Bft) 97,87 %
27.06.2020 08:54 21,9 C 21,7 C 20,6 C 81 % 1009,9 hPa 0,0 l/m 0 min 0 min 100 W/m 0,0 km/h (0 Bft) 100,00 %
27.06.2020 08:56 21,9 C 21,7 C 20,6 C 81 % 1009,9 hPa 0,0 l/m 0 min 0 min 98 W/m 9,7 km/h (2 Bft) 97,87 %
27.06.2020 08:58 21,9 C 21,7 C 20,6 C 81 % 1009,9 hPa 0,0 l/m 0 min 0 min 98 W/m 3,2 km/h (1 Bft) 97,87 %
27.06.2020 09:00 21,9 C 21,7 C 20,6 C 81 % 1009,8 hPa 0,0 l/m 0 min 0 min 98 W/m 0,0 km/h (0 Bft) 91,49 %
27.06.2020 09:02 21,9 C 21,7 C 20,6 C 80 % 1009,9 hPa 0,0 l/m 0 min 0 min 98 W/m 0,0 km/h (0 Bft) 97,87 %
27.06.2020 09:04 22,0 C 21,7 C 20,6 C 80 % 1009,9 hPa 0,0 l/m 0 min 0 min 100 W/m 0,0 km/h (0 Bft) 97,87 %
27.06.2020 09:06 21,9 C 21,7 C 20,6 C 80 % 1009,8 hPa 0,0 l/m 0 min 0 min 101 W/m 6,4 km/h (2 Bft) 97,83 %
27.06.2020 09:08 22,0 C 21,7 C 20,6 C 80 % 1009,8 hPa 0,0 l/m 0 min 0 min 103 W/m 6,4 km/h (2 Bft) 97,87 %
27.06.2020 09:10 22,0 C 21,7 C 20,6 C 80 % 1009,8 hPa 0,0 l/m 0 min 0 min 107 W/m 3,2 km/h (1 Bft) 97,87 %
27.06.2020 09:12 22,0 C 21,7 C 20,6 C 79 % 1009,8 hPa 0,0 l/m 0 min 0 min 110 W/m 12,9 km/h (3 Bft) 97,87 %
27.06.2020 09:14 22,0 C 21,7 C 20,6 C 79 % 1009,8 hPa 0,0 l/m 0 min 0 min 113 W/m 6,4 km/h (2 Bft) 95,74 %
27.06.2020 09:16 22,1 C 21,7 C 20,6 C 79 % 1009,9 hPa 0,0 l/m 0 min 0 min 114 W/m 19,3 km/h (3 Bft) 95,65 %
27.06.2020 09:18 22,1 C 21,7 C 20,6 C 79 % 1009,8 hPa 0,0 l/m 0 min 0 min 116 W/m 19,3 km/h (3 Bft) 97,87 %
27.06.2020 09:20 22,1 C 22,2 C 21,1 C 78 % 1009,9 hPa 0,0 l/m 0 min 0 min 116 W/m 3,2 km/h (1 Bft) 97,87 %
27.06.2020 09:22 22,1 C 22,2 C 21,1 C 78 % 1009,8 hPa 0,0 l/m 0 min 0 min 118 W/m 6,4 km/h (2 Bft) 97,87 %
27.06.2020 09:24 22,1 C 22,2 C 21,1 C 79 % 1009,8 hPa 0,0 l/m 0 min 0 min 120 W/m 19,3 km/h (3 Bft) 97,87 %
27.06.2020 09:26 22,1 C 22,2 C 21,1 C 78 % 1009,8 hPa 0,0 l/m 0 min 0 min 123 W/m 19,3 km/h (3 Bft) 97,87 %
27.06.2020 09:28 22,1 C 21,7 C 21,1 C 78 % 1009,8 hPa 0,0 l/m 0 min 0 min 125 W/m 12,9 km/h (3 Bft) 97,87 %
27.06.2020 09:30 22,1 C 22,2 C 21,1 C 78 % 1009,8 hPa 0,0 l/m 0 min 0 min 127 W/m 19,3 km/h (3 Bft) 95,65 %
27.06.2020 09:32 22,1 C 22,2 C 21,1 C 78 % 1009,7 hPa 0,0 l/m 0 min 0 min 128 W/m 6,4 km/h (2 Bft) 93,62 %
27.06.2020 09:34 22,2 C 22,2 C 21,1 C 78 % 1009,7 hPa 0,0 l/m 0 min 0 min 128 W/m 6,4 km/h (2 Bft) 95,74 %
27.06.2020 09:36 22,2 C 22,2 C 21,1 C 78 % 1009,7 hPa 0,0 l/m 0 min 0 min 128 W/m 3,2 km/h (1 Bft) 95,74 %
27.06.2020 09:38 22,2 C 22,2 C 21,1 C 78 % 1009,7 hPa 0,0 l/m 0 min 0 min 129 W/m 6,4 km/h (2 Bft) 95,74 %
27.06.2020 09:40 22,2 C 22,2 C 21,1 C 78 % 1009,8 hPa 0,0 l/m 0 min 0 min 132 W/m 6,4 km/h (2 Bft) 95,65 %
27.06.2020 09:42 22,2 C 22,2 C 21,1 C 78 % 1009,8 hPa 0,0 l/m 0 min 0 min 137 W/m 3,2 km/h (1 Bft) 95,74 %
27.06.2020 09:44 22,2 C 22,2 C 21,1 C 78 % 1009,8 hPa 0,0 l/m 0 min 0 min 143 W/m 0,0 km/h (0 Bft) 97,87 %
27.06.2020 09:46 22,2 C 22,2 C 21,1 C 78 % 1009,8 hPa 0,0 l/m 0 min 0 min 151 W/m 6,4 km/h (2 Bft) 95,74 %
27.06.2020 09:48 22,3 C 22,8 C 21,1 C 77 % 1009,7 hPa 0,0 l/m 0 min 0 min 155 W/m 3,2 km/h (1 Bft) 95,74 %
27.06.2020 09:50 22,3 C 22,8 C 21,1 C 77 % 1009,7 hPa 0,0 l/m 0 min 0 min 156 W/m 3,2 km/h (1 Bft) 97,87 %
27.06.2020 09:52 22,3 C 22,8 C 21,1 C 77 % 1009,7 hPa 0,0 l/m 0 min 0 min 156 W/m 0,0 km/h (0 Bft) 95,65 %
27.06.2020 09:54 22,3 C 22,8 C 21,1 C 78 % 1009,7 hPa 0,0 l/m 0 min 0 min 154 W/m 0,0 km/h (0 Bft) 95,74 %
27.06.2020 09:56 22,4 C 22,8 C 21,1 C 78 % 1009,7 hPa 0,0 l/m 0 min 0 min 153 W/m 0,0 km/h (0 Bft) 97,87 %
27.06.2020 09:58 22,4 C 22,8 C 21,1 C 78 % 1009,6 hPa 0,0 l/m 0 min 0 min 154 W/m 0,0 km/h (0 Bft) 97,87 %
27.06.2020 10:00 22,4 C 22,8 C 21,1 C 78 % 1009,7 hPa 0,0 l/m 0 min 0 min 155 W/m 0,0 km/h (0 Bft) 97,87 %
27.06.2020 10:02 22,4 C 22,8 C 21,7 C 77 % 1009,7 hPa 0,0 l/m 0 min 0 min 155 W/m 0,0 km/h (0 Bft) 97,87 %
27.06.2020 10:04 22,4 C 22,8 C 21,7 C 77 % 1009,7 hPa 0,0 l/m 0 min 0 min 157 W/m 3,2 km/h (1 Bft) 97,83 %
27.06.2020 10:06 22,5 C 22,8 C 21,7 C 76 % 1009,6 hPa 0,0 l/m 0 min 0 min 161 W/m 6,4 km/h (2 Bft) 97,87 %
27.06.2020 10:08 22,5 C 23,3 C 21,7 C 77 % 1009,7 hPa 0,0 l/m 0 min 0 min 164 W/m 3,2 km/h (1 Bft) 97,87 %
27.06.2020 10:10 22,6 C 23,3 C 21,1 C 77 % 1009,7 hPa 0,0 l/m 0 min 0 min 168 W/m 3,2 km/h (1 Bft) 97,87 %
27.06.2020 10:12 22,6 C 23,3 C 21,1 C 77 % 1009,7 hPa 0,0 l/m 0 min 0 min 172 W/m 0,0 km/h (0 Bft) 95,74 %
27.06.2020 10:14 22,6 C 23,3 C 21,1 C 77 % 1009,8 hPa 0,0 l/m 0 min 0 min 181 W/m 0,0 km/h (0 Bft) 97,87 %
27.06.2020 10:16 22,6 C 23,3 C 21,7 C 78 % 1009,7 hPa 0,0 l/m 0 min 0 min 200 W/m 0,0 km/h (0 Bft) 97,83 %
27.06.2020 10:18 22,7 C 23,3 C 21,7 C 77 % 1009,8 hPa 0,0 l/m 0 min 0 min 219 W/m 0,0 km/h (0 Bft) 97,87 %
27.06.2020 10:20 22,7 C 23,9 C 21,7 C 78 % 1009,8 hPa 0,0 l/m 0 min 0 min 232 W/m 0,0 km/h (0 Bft) 97,87 %
27.06.2020 10:22 22,8 C 23,3 C 21,7 C 78 % 1009,9 hPa 0,0 l/m 0 min 0 min 239 W/m 3,2 km/h (1 Bft) 97,87 %
27.06.2020 10:24 22,8 C 23,3 C 21,7 C 77 % 1009,8 hPa 0,0 l/m 0 min 0 min 243 W/m 3,2 km/h (1 Bft) 95,74 %
27.06.2020 10:26 22,8 C 23,3 C 22,2 C 77 % 1009,9 hPa 0,0 l/m 0 min 0 min 251 W/m 6,4 km/h (2 Bft) 97,83 %
27.06.2020 10:28 22,8 C 23,3 C 22,2 C 76 % 1009,9 hPa 0,0 l/m 0 min 0 min 264 W/m 0,0 km/h (0 Bft) 100,00 %
27.06.2020 10:30 22,9 C 23,9 C 22,2 C 77 % 1009,9 hPa 0,0 l/m 0 min 0 min 283 W/m 0,0 km/h (0 Bft) 97,87 %
27.06.2020 10:32 22,9 C 23,9 C 22,2 C 77 % 1010,0 hPa 0,0 l/m 0 min 0 min 319 W/m 12,9 km/h (3 Bft) 95,74 %
27.06.2020 10:34 23,0 C 23,9 C 22,8 C 76 % 1010,0 hPa 0,0 l/m 0 min 0 min 363 W/m 6,4 km/h (2 Bft) 97,87 %
27.06.2020 10:36 23,0 C 24,4 C 22,8 C 75 % 1009,9 hPa 0,0 l/m 2 min 0 min 430 W/m 3,2 km/h (1 Bft) 100,00 %
27.06.2020 10:38 23,1 C 25,6 C 23,9 C 75 % 1009,9 hPa 0,0 l/m 2 min 0 min 486 W/m 0,0 km/h (0 Bft) 100,00 %
27.06.2020 10:40 23,1 C 26,1 C 24,4 C 75 % 1009,9 hPa 0,0 l/m 2 min 0 min 487 W/m 16,1 km/h (3 Bft) 95,74 %
27.06.2020 10:42 23,2 C 26,7 C 24,4 C 75 % 1009,9 hPa 0,0 l/m 2 min 0 min 513 W/m 3,2 km/h (1 Bft) 97,87 %
27.06.2020 10:44 23,3 C 26,7 C 25,0 C 75 % 1009,9 hPa 0,0 l/m 2 min 0 min 445 W/m 9,7 km/h (2 Bft) 97,87 %
27.06.2020 10:46 23,3 C 26,7 C 24,4 C 75 % 1009,9 hPa 0,0 l/m 0 min 0 min 341 W/m 9,7 km/h (2 Bft) 97,87 %
27.06.2020 10:48 23,4 C 26,1 C 24,4 C 74 % 1009,9 hPa 0,0 l/m 0 min 0 min 302 W/m 9,7 km/h (2 Bft) 97,87 %
27.06.2020 10:50 23,5 C 26,1 C 24,4 C 73 % 1010,0 hPa 0,0 l/m 2 min 0 min 418 W/m 9,7 km/h (2 Bft) 95,65 %
27.06.2020 10:52 23,6 C 26,7 C 25,0 C 72 % 1009,9 hPa 0,0 l/m 2 min 0 min 592 W/m 12,9 km/h (3 Bft) 97,87 %
27.06.2020 10:54 23,7 C 26,7 C 26,1 C 72 % 1009,8 hPa 0,0 l/m 2 min 0 min 727 W/m 16,1 km/h (3 Bft) 97,87 %
27.06.2020 10:56 23,8 C 26,7 C 26,1 C 72 % 1009,9 hPa 0,0 l/m 2 min 0 min 588 W/m 16,1 km/h (3 Bft) 95,74 %
27.06.2020 10:58 23,9 C 27,8 C 26,1 C 72 % 1009,8 hPa 0,0 l/m 2 min 0 min 506 W/m 6,4 km/h (2 Bft) 97,87 %
27.06.2020 11:00 24,1 C 26,1 C 25,6 C 71 % 1009,9 hPa 0,0 l/m 2 min 0 min 390 W/m 19,3 km/h (3 Bft) 95,74 %
27.06.2020 11:02 24,2 C 26,1 C 25,0 C 70 % 1009,9 hPa 0,0 l/m 2 min 0 min 393 W/m 12,9 km/h (3 Bft) 97,83 %
27.06.2020 11:04 24,3 C 27,2 C 25,0 C 70 % 1009,8 hPa 0,0 l/m 2 min 0 min 459 W/m 6,4 km/h (2 Bft) 95,74 %
27.06.2020 11:06 24,3 C 27,8 C 25,6 C 71 % 1009,8 hPa 0,0 l/m 2 min 0 min 473 W/m 6,4 km/h (2 Bft) 97,87 %
27.06.2020 11:08 24,4 C 27,2 C 25,6 C 70 % 1009,9 hPa 0,0 l/m 2 min 0 min 505 W/m 12,9 km/h (3 Bft) 97,87 %
27.06.2020 11:10 24,6 C 27,2 C 25,6 C 69 % 1009,9 hPa 0,0 l/m 2 min 0 min 483 W/m 19,3 km/h (3 Bft) 97,87 %
27.06.2020 11:12 24,6 C 28,3 C 26,7 C 69 % 1010,0 hPa 0,0 l/m 2 min 0 min 527 W/m 9,7 km/h (2 Bft) 95,74 %
27.06.2020 11:14 24,7 C 28,3 C 27,2 C 69 % 1010,0 hPa 0,0 l/m 2 min 0 min 729 W/m 19,3 km/h (3 Bft) 95,65 %
27.06.2020 11:16 24,8 C 27,8 C 26,1 C 68 % 1010,0 hPa 0,0 l/m 2 min 0 min 745 W/m 19,3 km/h (3 Bft) 97,87 %
27.06.2020 11:18 24,9 C 27,2 C 25,6 C 68 % 1009,9 hPa 0,0 l/m 0 min 0 min 383 W/m 12,9 km/h (3 Bft) 97,87 %
27.06.2020 11:20 25,0 C 26,7 C 25,6 C 67 % 1009,9 hPa 0,0 l/m 0 min 0 min 324 W/m 9,7 km/h (2 Bft) 95,74 %
27.06.2020 11:22 25,1 C 26,7 C 25,0 C 68 % 1009,9 hPa 0,0 l/m 0 min 0 min 335 W/m 12,9 km/h (3 Bft) 97,87 %
27.06.2020 11:24 25,1 C 26,7 C 25,0 C 67 % 1009,9 hPa 0,0 l/m 0 min 0 min 355 W/m 12,9 km/h (3 Bft) 97,87 %
27.06.2020 11:26 25,1 C 26,7 C 25,0 C 67 % 1009,9 hPa 0,0 l/m 0 min 0 min 390 W/m 12,9 km/h (3 Bft) 97,83 %
27.06.2020 11:28 25,1 C 26,7 C 25,0 C 67 % 1009,9 hPa 0,0 l/m 2 min 0 min 455 W/m 12,9 km/h (3 Bft) 97,87 %
27.06.2020 11:30 25,2 C 27,2 C 25,0 C 67 % 1009,9 hPa 0,0 l/m 0 min 0 min 386 W/m 12,9 km/h (3 Bft) 100,00 %
27.06.2020 11:32 25,2 C 27,2 C 25,6 C 67 % 1009,9 hPa 0,0 l/m 2 min 0 min 437 W/m 16,1 km/h (3 Bft) 89,36 %
27.06.2020 11:34 25,2 C 27,2 C 25,6 C 67 % 1009,9 hPa 0,0 l/m 0 min 0 min 388 W/m 16,1 km/h (3 Bft) 93,62 %
27.06.2020 11:36 25,2 C 26,7 C 25,0 C 66 % 1009,9 hPa 0,0 l/m 0 min 0 min 387 W/m 22,5 km/h (4 Bft) 93,48 %
27.06.2020 11:38 25,2 C 26,1 C 25,0 C 66 % 1009,9 hPa 0,0 l/m 0 min 0 min 325 W/m 19,3 km/h (3 Bft) 97,87 %
27.06.2020 11:40 25,2 C 26,7 C 25,0 C 66 % 1009,9 hPa 0,0 l/m 0 min 0 min 391 W/m 12,9 km/h (3 Bft) 97,87 %
27.06.2020 11:42 25,3 C 27,2 C 25,6 C 66 % 1009,9 hPa 0,0 l/m 2 min 0 min 425 W/m 19,3 km/h (3 Bft) 97,87 %
27.06.2020 11:44 25,3 C 27,8 C 25,6 C 66 % 1009,9 hPa 0,0 l/m 2 min 0 min 425 W/m 19,3 km/h (3 Bft) 97,87 %
27.06.2020 11:46 25,4 C 28,3 C 25,6 C 66 % 1009,9 hPa 0,0 l/m 2 min 0 min 589 W/m 19,3 km/h (3 Bft) 97,83 %
27.06.2020 11:48 25,5 C 30,0 C 26,7 C 67 % 1009,8 hPa 0,0 l/m 2 min 0 min 788 W/m 16,1 km/h (3 Bft) 97,87 %
27.06.2020 11:50 25,6 C 30,0 C 27,2 C 66 % 1009,8 hPa 0,0 l/m 2 min 0 min 831 W/m 16,1 km/h (3 Bft) 95,74 %
27.06.2020 11:52 25,7 C 30,6 C 27,8 C 66 % 1009,8 hPa 0,0 l/m 2 min 0 min 847 W/m 19,3 km/h (3 Bft) 97,87 %
27.06.2020 11:54 25,9 C 30,6 C 27,8 C 65 % 1009,9 hPa 0,0 l/m 2 min 0 min 840 W/m 19,3 km/h (3 Bft) 97,87 %
27.06.2020 11:56 26,1 C 30,0 C 28,3 C 65 % 1010,0 hPa 0,0 l/m 2 min 0 min 873 W/m 22,5 km/h (4 Bft) 97,87 %
27.06.2020 11:58 26,2 C 30,6 C 27,8 C 64 % 1010,0 hPa 0,0 l/m 2 min 0 min 833 W/m 29,0 km/h (5 Bft) 97,83 %
27.06.2020 12:00 26,3 C 30,0 C 27,8 C 64 % 1009,9 hPa 0,0 l/m 2 min 0 min 810 W/m 35,4 km/h (5 Bft) 97,87 %
27.06.2020 12:02 26,4 C 28,9 C 27,8 C 62 % 1009,9 hPa 0,0 l/m 2 min 0 min 745 W/m 25,7 km/h (4 Bft) 97,87 %
27.06.2020 12:04 26,4 C 28,9 C 27,8 C 62 % 1009,9 hPa 0,0 l/m 2 min 0 min 765 W/m 25,7 km/h (4 Bft) 97,87 %
27.06.2020 12:08 26,6 C 30,0 C 28,3 C 62 % 1010,0 hPa 0,0 l/m 4 min 0 min 800 W/m 22,5 km/h (4 Bft) 96,81 %
27.06.2020 12:10 26,7 C 30,6 C 27,8 C 62 % 1009,8 hPa 0,0 l/m 2 min 0 min 859 W/m 25,7 km/h (4 Bft) 97,87 %
27.06.2020 12:12 26,8 C 30,6 C 27,8 C 62 % 1009,8 hPa 0,0 l/m 2 min 0 min 903 W/m 16,1 km/h (3 Bft) 97,83 %
27.06.2020 12:14 26,9 C 31,1 C 28,3 C 63 % 1009,9 hPa 0,0 l/m 2 min 0 min 902 W/m 19,3 km/h (3 Bft) 100,00 %
27.06.2020 12:16 27,1 C 31,7 C 28,3 C 62 % 1009,8 hPa 0,0 l/m 2 min 0 min 906 W/m 12,9 km/h (3 Bft) 100,00 %
27.06.2020 12:18 27,1 C 31,1 C 28,3 C 61 % 1009,8 hPa 0,0 l/m 2 min 0 min 907 W/m 25,7 km/h (4 Bft) 97,87 %
27.06.2020 12:20 27,2 C 31,7 C 28,3 C 62 % 1009,8 hPa 0,0 l/m 2 min 0 min 916 W/m 19,3 km/h (3 Bft) 100,00 %
27.06.2020 12:22 27,3 C 32,2 C 28,9 C 61 % 1009,7 hPa 0,0 l/m 2 min 0 min 923 W/m 19,3 km/h (3 Bft) 100,00 %
27.06.2020 12:24 27,4 C 32,2 C 28,9 C 62 % 1009,8 hPa 0,0 l/m 2 min 0 min 923 W/m 25,7 km/h (4 Bft) 97,83 %
27.06.2020 12:26 27,6 C 31,7 C 28,3 C 61 % 1009,7 hPa 0,0 l/m 2 min 0 min 924 W/m 19,3 km/h (3 Bft) 97,87 %
27.06.2020 12:28 27,7 C 31,1 C 28,3 C 62 % 1009,6 hPa 0,0 l/m 2 min 0 min 902 W/m 25,7 km/h (4 Bft) 100,00 %
27.06.2020 12:30 27,8 C 31,7 C 28,3 C 61 % 1009,7 hPa 0,0 l/m 2 min 0 min 905 W/m 29,0 km/h (5 Bft) 100,00 %
27.06.2020 12:32 27,9 C 31,7 C 28,9 C 61 % 1009,7 hPa 0,0 l/m 2 min 0 min 923 W/m 22,5 km/h (4 Bft) 100,00 %
27.06.2020 12:34 28,0 C 31,7 C 28,9 C 61 % 1009,6 hPa 0,0 l/m 2 min 0 min 854 W/m 22,5 km/h (4 Bft) 100,00 %
27.06.2020 12:36 28,1 C 32,2 C 28,9 C 60 % 1009,6 hPa 0,0 l/m 2 min 0 min 932 W/m 19,3 km/h (3 Bft) 97,83 %
27.06.2020 12:38 28,2 C 32,2 C 29,4 C 61 % 1009,6 hPa 0,0 l/m 2 min 0 min 883 W/m 19,3 km/h (3 Bft) 100,00 %
27.06.2020 12:40 28,2 C 31,7 C 29,4 C 60 % 1009,6 hPa 0,0 l/m 0 min 0 min 436 W/m 29,0 km/h (5 Bft) 100,00 %
27.06.2020 12:42 28,3 C 29,4 C 28,9 C 60 % 1009,5 hPa 0,0 l/m 2 min 0 min 690 W/m 25,7 km/h (4 Bft) 100,00 %
27.06.2020 12:44 28,3 C 30,6 C 28,9 C 61 % 1009,5 hPa 0,0 l/m 0 min 0 min 279 W/m 29,0 km/h (5 Bft) 100,00 %
27.06.2020 12:46 28,3 C 31,1 C 30,0 C 60 % 1009,5 hPa 0,0 l/m 2 min 0 min 1011 W/m 29,0 km/h (5 Bft) 95,65 %
27.06.2020 12:48 28,3 C 32,2 C 30,0 C 60 % 1009,5 hPa 0,0 l/m 2 min 0 min 1037 W/m 22,5 km/h (4 Bft) 95,74 %
27.06.2020 12:50 28,4 C 32,8 C 30,0 C 60 % 1009,4 hPa 0,0 l/m 2 min 0 min 1024 W/m 29,0 km/h (5 Bft) 97,87 %
27.06.2020 12:52 28,4 C 32,2 C 30,0 C 60 % 1009,3 hPa 0,0 l/m 2 min 0 min 1009 W/m 29,0 km/h (5 Bft) 93,62 %
27.06.2020 12:54 28,5 C 31,7 C 30,0 C 60 % 1009,4 hPa 0,0 l/m 2 min 0 min 1076 W/m 25,7 km/h (4 Bft) 97,87 %
27.06.2020 12:56 28,6 C 30,6 C 29,4 C 60 % 1009,3 hPa 0,0 l/m 2 min 0 min 1033 W/m 29,0 km/h (5 Bft) 97,87 %
27.06.2020 12:58 28,6 C 31,1 C 28,9 C 61 % 1009,4 hPa 0,0 l/m 0 min 0 min 343 W/m 22,5 km/h (4 Bft) 97,83 %
27.06.2020 13:00 28,6 C 29,4 C 28,3 C 60 % 1009,3 hPa 0,0 l/m 0 min 0 min 338 W/m 19,3 km/h (3 Bft) 97,87 %
27.06.2020 13:02 28,6 C 28,9 C 27,8 C 61 % 1009,4 hPa 0,0 l/m 0 min 0 min 341 W/m 29,0 km/h (5 Bft) 97,87 %
27.06.2020 13:04 28,5 C 30,0 C 27,8 C 61 % 1009,4 hPa 0,0 l/m 0 min 0 min 386 W/m 22,5 km/h (4 Bft) 97,78 %
27.06.2020 13:06 28,5 C 30,0 C 27,8 C 61 % 1009,3 hPa 0,0 l/m 0 min 0 min 391 W/m 19,3 km/h (3 Bft) 97,87 %
27.06.2020 13:08 28,5 C 30,0 C 28,3 C 62 % 1009,4 hPa 0,0 l/m 0 min 0 min 413 W/m 19,3 km/h (3 Bft) 97,87 %
27.06.2020 13:10 28,5 C 30,0 C 28,3 C 61 % 1009,4 hPa 0,0 l/m 2 min 0 min 515 W/m 35,4 km/h (5 Bft) 97,83 %
27.06.2020 13:12 28,5 C 30,0 C 28,3 C 61 % 1009,3 hPa 0,0 l/m 2 min 0 min 531 W/m 22,5 km/h (4 Bft) 93,62 %
27.06.2020 13:14 28,5 C 28,9 C 27,8 C 61 % 1009,3 hPa 0,0 l/m 0 min 0 min 297 W/m 22,5 km/h (4 Bft) 98,15 %
27.06.2020 13:16 28,4 C 28,3 C 27,2 C 62 % 1009,4 hPa 0,0 l/m 0 min 0 min 234 W/m 22,5 km/h (4 Bft) 97,87 %
27.06.2020 13:18 28,3 C 27,8 C 27,2 C 62 % 1009,2 hPa 0,0 l/m 0 min 0 min 223 W/m 22,5 km/h (4 Bft) 97,83 %
27.06.2020 13:20 28,2 C 27,2 C 26,7 C 62 % 1009,3 hPa 0,0 l/m 0 min 0 min 263 W/m 25,7 km/h (4 Bft) 97,87 %
27.06.2020 13:22 28,2 C 28,3 C 27,2 C 63 % 1009,3 hPa 0,0 l/m 0 min 0 min 323 W/m 25,7 km/h (4 Bft) 95,74 %
27.06.2020 13:24 28,1 C 29,4 C 27,8 C 63 % 1009,3 hPa 0,0 l/m 0 min 0 min 324 W/m 16,1 km/h (3 Bft) 97,87 %
27.06.2020 13:26 28,1 C 28,9 C 27,2 C 63 % 1009,4 hPa 0,0 l/m 0 min 0 min 331 W/m 22,5 km/h (4 Bft) 97,87 %
27.06.2020 13:28 28,1 C 28,3 C 27,2 C 63 % 1009,3 hPa 0,0 l/m 0 min 0 min 244 W/m 25,7 km/h (4 Bft) 97,87 %
27.06.2020 13:30 28,1 C 27,8 C 27,2 C 63 % 1009,4 hPa 0,0 l/m 0 min 0 min 201 W/m 19,3 km/h (3 Bft) 97,83 %
27.06.2020 13:32 28,1 C 27,2 C 26,7 C 63 % 1009,4 hPa 0,0 l/m 0 min 0 min 161 W/m 25,7 km/h (4 Bft) 97,92 %
27.06.2020 13:34 27,9 C 26,1 C 26,1 C 63 % 1009,5 hPa 0,0 l/m 0 min 0 min 117 W/m 38,6 km/h (5 Bft) 95,74 %
27.06.2020 13:36 27,7 C 26,1 C 26,1 C 63 % 1009,4 hPa 0,0 l/m 0 min 0 min 126 W/m 16,1 km/h (3 Bft) 97,87 %
27.06.2020 13:38 27,6 C 26,1 C 25,6 C 64 % 1009,4 hPa 0,0 l/m 0 min 0 min 142 W/m 16,1 km/h (3 Bft) 97,87 %
27.06.2020 13:40 27,4 C 26,1 C 25,6 C 64 % 1009,4 hPa 0,0 l/m 0 min 0 min 150 W/m 19,3 km/h (3 Bft) 97,87 %
27.06.2020 13:42 27,3 C 27,2 C 26,1 C 65 % 1009,4 hPa 0,0 l/m 0 min 0 min 213 W/m 16,1 km/h (3 Bft) 100,00 %
27.06.2020 13:44 27,3 C 29,4 C 27,8 C 65 % 1009,5 hPa 0,0 l/m 2 min 0 min 793 W/m 16,1 km/h (3 Bft) 95,74 %
27.06.2020 13:46 27,4 C 30,6 C 28,9 C 66 % 1009,3 hPa 0,0 l/m 2 min 0 min 1046 W/m 19,3 km/h (3 Bft) 97,83 %
27.06.2020 13:48 27,4 C 31,1 C 29,4 C 65 % 1009,4 hPa 0,0 l/m 2 min 0 min 872 W/m 22,5 km/h (4 Bft) 97,87 %
27.06.2020 13:50 27,6 C 31,1 C 29,4 C 65 % 1009,3 hPa 0,0 l/m 2 min 0 min 872 W/m 16,1 km/h (3 Bft) 97,87 %
27.06.2020 13:52 27,6 C 31,1 C 29,4 C 65 % 1009,3 hPa 0,0 l/m 2 min 0 min 949 W/m 16,1 km/h (3 Bft) 100,00 %
27.06.2020 13:54 27,7 C 28,9 C 27,8 C 64 % 1009,5 hPa 0,0 l/m 2 min 0 min 646 W/m 25,7 km/h (4 Bft) 97,87 %
27.06.2020 13:56 27,7 C 28,9 C 27,8 C 64 % 1009,4 hPa 0,0 l/m 0 min 0 min 251 W/m 19,3 km/h (3 Bft) 97,87 %
27.06.2020 13:58 27,7 C 29,4 C 28,3 C 62 % 1009,4 hPa 0,0 l/m 0 min 0 min 251 W/m 25,7 km/h (4 Bft) 97,83 %
27.06.2020 14:00 27,8 C 31,1 C 28,9 C 62 % 1009,3 hPa 0,0 l/m 2 min 0 min 925 W/m 19,3 km/h (3 Bft) 97,87 %
27.06.2020 14:02 27,9 C 31,7 C 29,4 C 62 % 1009,9 hPa 0,0 l/m 2 min 0 min 973 W/m 41,8 km/h (6 Bft) 97,87 %
27.06.2020 14:04 28,0 C 31,7 C 30,0 C 61 % 1009,3 hPa 0,0 l/m 2 min 0 min 998 W/m 35,4 km/h (5 Bft) 93,62 %
27.06.2020 14:06 28,1 C 31,7 C 30,0 C 61 % 1009,3 hPa 0,0 l/m 2 min 0 min 1047 W/m 19,3 km/h (3 Bft) 93,62 %
27.06.2020 14:08 28,2 C 31,7 C 30,0 C 61 % 1009,3 hPa 0,0 l/m 2 min 0 min 1056 W/m 29,0 km/h (5 Bft) 95,65 %
27.06.2020 14:10 28,3 C 31,7 C 28,9 C 62 % 1009,3 hPa 0,0 l/m 2 min 0 min 1056 W/m 22,5 km/h (4 Bft) 93,62 %
27.06.2020 14:12 28,4 C 31,1 C 28,9 C 62 % 1009,3 hPa 0,0 l/m 2 min 0 min 1056 W/m 16,1 km/h (3 Bft) 95,74 %
27.06.2020 14:14 28,4 C 31,7 C 28,9 C 63 % 1009,2 hPa 0,0 l/m 2 min 0 min 1056 W/m 12,9 km/h (3 Bft) 95,74 %
27.06.2020 14:16 28,5 C 32,2 C 28,9 C 62 % 1009,2 hPa 0,0 l/m 2 min 0 min 1022 W/m 19,3 km/h (3 Bft) 95,74 %
27.06.2020 14:18 28,6 C 31,7 C 28,9 C 60 % 1009,3 hPa 0,0 l/m 2 min 0 min 971 W/m 38,6 km/h (5 Bft) 95,74 %
27.06.2020 14:20 28,7 C 31,7 C 28,9 C 59 % 1009,1 hPa 0,0 l/m 2 min 0 min 973 W/m 29,0 km/h (5 Bft) 95,65 %
27.06.2020 14:22 28,7 C 32,2 C 29,4 C 60 % 1009,2 hPa 0,0 l/m 2 min 0 min 978 W/m 25,7 km/h (4 Bft) 93,62 %
27.06.2020 14:24 28,8 C 32,2 C 28,9 C 59 % 1009,2 hPa 0,0 l/m 2 min 0 min 964 W/m 32,2 km/h (5 Bft) 95,74 %
27.06.2020 14:26 28,8 C 31,7 C 28,9 C 57 % 1009,2 hPa 0,0 l/m 2 min 0 min 960 W/m 25,7 km/h (4 Bft) 93,62 %
27.06.2020 14:28 28,8 C 32,2 C 28,9 C 58 % 1009,2 hPa 0,0 l/m 2 min 0 min 951 W/m 22,5 km/h (4 Bft) 95,74 %
27.06.2020 14:30 28,8 C 32,2 C 28,9 C 57 % 1009,1 hPa 0,0 l/m 2 min 0 min 950 W/m 29,0 km/h (5 Bft) 95,74 %
27.06.2020 14:32 28,9 C 32,2 C 28,9 C 57 % 1009,2 hPa 0,0 l/m 2 min 0 min 952 W/m 35,4 km/h (5 Bft) 98,11 %
27.06.2020 14:34 28,9 C 32,2 C 28,9 C 57 % 1009,2 hPa 0,0 l/m 2 min 0 min 950 W/m 35,4 km/h (5 Bft) 95,74 %
27.06.2020 14:36 29,0 C 31,7 C 28,9 C 58 % 1009,3 hPa 0,0 l/m 2 min 0 min 951 W/m 25,7 km/h (4 Bft) 95,74 %
27.06.2020 14:38 29,0 C 31,7 C 28,3 C 58 % 1009,1 hPa 0,0 l/m 2 min 0 min 994 W/m 25,7 km/h (4 Bft) 95,74 %
27.06.2020 14:40 29,1 C 31,7 C 28,3 C 60 % 1009,2 hPa 0,0 l/m 2 min 0 min 1042 W/m 16,1 km/h (3 Bft) 93,48 %
27.06.2020 14:42 29,1 C 31,7 C 28,9 C 60 % 1009,2 hPa 0,0 l/m 2 min 0 min 1014 W/m 16,1 km/h (3 Bft) 91,49 %
27.06.2020 14:44 29,2 C 32,8 C 28,9 C 60 % 1009,1 hPa 0,0 l/m 2 min 0 min 969 W/m 29,0 km/h (5 Bft) 95,00 %
27.06.2020 14:46 29,2 C 32,2 C 28,9 C 58 % 1009,3 hPa 0,0 l/m 2 min 0 min 978 W/m 32,2 km/h (5 Bft) 95,74 %
27.06.2020 14:48 29,2 C 31,7 C 28,9 C 57 % 1009,2 hPa 0,0 l/m 2 min 0 min 976 W/m 29,0 km/h (5 Bft) 100,00 %
27.06.2020 14:50 29,2 C 31,7 C 28,3 C 56 % 1009,2 hPa 0,0 l/m 2 min 0 min 968 W/m 29,0 km/h (5 Bft) 97,87 %
27.06.2020 14:52 29,2 C 31,1 C 28,3 C 57 % 1009,1 hPa 0,0 l/m 2 min 0 min 616 W/m 22,5 km/h (4 Bft) 100,00 %
27.06.2020 14:54 29,2 C 32,2 C 28,3 C 57 % 1009,2 hPa 0,0 l/m 2 min 0 min 660 W/m 19,3 km/h (3 Bft) 100,00 %
27.06.2020 14:56 29,2 C 31,7 C 28,3 C 57 % 1009,1 hPa 0,0 l/m 2 min 0 min 960 W/m 35,4 km/h (5 Bft) 100,00 %
27.06.2020 14:58 29,1 C 30,6 C 27,8 C 57 % 1009,1 hPa 0,0 l/m 2 min 0 min 993 W/m 32,2 km/h (5 Bft) 100,00 %
27.06.2020 15:00 29,1 C 30,0 C 27,8 C 57 % 1009,1 hPa 0,0 l/m 2 min 0 min 1008 W/m 35,4 km/h (5 Bft) 97,87 %
27.06.2020 15:02 29,0 C 30,6 C 27,8 C 56 % 1009,1 hPa 0,0 l/m 2 min 0 min 1000 W/m 22,5 km/h (4 Bft) 100,00 %
27.06.2020 15:04 28,9 C 31,1 C 27,8 C 56 % 1009,1 hPa 0,0 l/m 2 min 0 min 983 W/m 32,2 km/h (5 Bft) 100,00 %
27.06.2020 15:06 28,9 C 31,1 C 27,8 C 55 % 1009,2 hPa 0,0 l/m 2 min 0 min 974 W/m 25,7 km/h (4 Bft) 97,87 %
27.06.2020 15:08 28,8 C 32,2 C 27,8 C 56 % 1009,0 hPa 0,0 l/m 2 min 0 min 993 W/m 25,7 km/h (4 Bft) 100,00 %
27.06.2020 15:10 28,9 C 32,2 C 27,8 C 55 % 1009,0 hPa 0,0 l/m 2 min 0 min 984 W/m 25,7 km/h (4 Bft) 100,00 %
27.06.2020 15:12 28,9 C 32,8 C 28,3 C 55 % 1009,1 hPa 0,0 l/m 2 min 0 min 963 W/m 29,0 km/h (5 Bft) 100,00 %
27.06.2020 15:14 29,0 C 32,2 C 28,3 C 54 % 1009,1 hPa 0,0 l/m 2 min 0 min 983 W/m 38,6 km/h (5 Bft) 97,87 %
27.06.2020 15:16 29,0 C 31,7 C 28,3 C 52 % 1009,3 hPa 0,0 l/m 2 min 0 min 987 W/m 51,5 km/h (7 Bft) 100,00 %
27.06.2020 15:18 29,0 C 31,1 C 27,8 C 53 % 1009,3 hPa 0,0 l/m 2 min 0 min 993 W/m 29,0 km/h (5 Bft) 100,00 %
27.06.2020 15:20 29,1 C 31,1 C 28,3 C 53 % 1009,1 hPa 0,0 l/m 2 min 0 min 946 W/m 35,4 km/h (5 Bft) 100,00 %
27.06.2020 15:22 29,1 C 31,1 C 27,8 C 54 % 1009,1 hPa 0,0 l/m 2 min 0 min 930 W/m 35,4 km/h (5 Bft) 97,87 %
27.06.2020 15:24 29,1 C 32,8 C 28,3 C 55 % 1009,1 hPa 0,0 l/m 2 min 0 min 970 W/m 35,4 km/h (5 Bft) 97,87 %
27.06.2020 15:26 29,2 C 33,3 C 28,3 C 55 % 1009,1 hPa 0,0 l/m 2 min 0 min 1006 W/m 19,3 km/h (3 Bft) 100,00 %
27.06.2020 15:28 29,2 C 31,1 C 28,3 C 54 % 1009,1 hPa 0,0 l/m 2 min 0 min 1039 W/m 35,4 km/h (5 Bft) 100,00 %
27.06.2020 15:30 29,2 C 31,7 C 27,8 C 54 % 1009,1 hPa 0,0 l/m 2 min 0 min 1031 W/m 29,0 km/h (5 Bft) 97,83 %
27.06.2020 15:32 29,2 C 32,2 C 28,3 C 53 % 1009,2 hPa 0,0 l/m 2 min 0 min 984 W/m 22,5 km/h (4 Bft) 97,87 %
27.06.2020 15:34 29,2 C 31,7 C 28,3 C 53 % 1009,1 hPa 0,0 l/m 2 min 0 min 917 W/m 45,1 km/h (6 Bft) 97,87 %
27.06.2020 15:36 29,2 C 31,1 C 27,8 C 53 % 1009,3 hPa 0,0 l/m 2 min 0 min 925 W/m 38,6 km/h (5 Bft) 100,00 %
27.06.2020 15:38 29,2 C 32,2 C 28,3 C 54 % 1009,0 hPa 0,0 l/m 2 min 0 min 925 W/m 25,7 km/h (4 Bft) 100,00 %
27.06.2020 15:40 29,3 C 32,2 C 28,3 C 53 % 1009,1 hPa 0,0 l/m 2 min 0 min 731 W/m 25,7 km/h (4 Bft) 100,00 %
27.06.2020 15:42 29,3 C 33,3 C 28,3 C 53 % 1009,1 hPa 0,0 l/m 2 min 0 min 725 W/m 19,3 km/h (3 Bft) 100,00 %
27.06.2020 15:44 29,4 C 32,2 C 28,3 C 51 % 1009,1 hPa 0,0 l/m 2 min 0 min 786 W/m 35,4 km/h (5 Bft) 100,00 %
27.06.2020 15:46 29,4 C 31,7 C 28,3 C 51 % 1009,1 hPa 0,0 l/m 2 min 0 min 573 W/m 38,6 km/h (5 Bft) 97,87 %
27.06.2020 15:48 29,4 C 30,6 C 28,3 C 51 % 1009,2 hPa 0,0 l/m 2 min 0 min 573 W/m 25,7 km/h (4 Bft) 100,00 %
27.06.2020 15:50 29,3 C 29,4 C 27,8 C 51 % 1009,2 hPa 0,0 l/m 2 min 0 min 573 W/m 38,6 km/h (5 Bft) 100,00 %
27.06.2020 15:52 29,3 C 29,4 C 27,8 C 51 % 1009,2 hPa 0,0 l/m 2 min 0 min 450 W/m 29,0 km/h (5 Bft) 100,00 %
27.06.2020 15:54 29,2 C 30,0 C 27,8 C 52 % 1009,2 hPa 0,0 l/m 2 min 0 min 483 W/m 29,0 km/h (5 Bft) 100,00 %
27.06.2020 15:56 29,1 C 30,0 C 27,8 C 52 % 1009,2 hPa 0,0 l/m 2 min 0 min 493 W/m 22,5 km/h (4 Bft) 100,00 %
27.06.2020 15:58 29,1 C 29,4 C 27,8 C 52 % 1009,1 hPa 0,0 l/m 0 min 0 min 372 W/m 19,3 km/h (3 Bft) 100,00 %
27.06.2020 16:00 29,0 C 29,4 C 27,8 C 52 % 1009,2 hPa 0,0 l/m 0 min 0 min 347 W/m 22,5 km/h (4 Bft) 100,00 %
27.06.2020 16:02 28,9 C 28,9 C 27,8 C 53 % 1009,1 hPa 0,0 l/m 0 min 0 min 332 W/m 22,5 km/h (4 Bft) 100,00 %
27.06.2020 16:04 28,8 C 28,3 C 27,2 C 53 % 1009,1 hPa 0,0 l/m 0 min 0 min 288 W/m 29,0 km/h (5 Bft) 100,00 %
27.06.2020 16:06 28,8 C 28,3 C 27,2 C 53 % 1009,2 hPa 0,0 l/m 0 min 0 min 366 W/m 32,2 km/h (5 Bft) 100,00 %
27.06.2020 16:08 28,7 C 28,3 C 27,2 C 53 % 1009,1 hPa 0,0 l/m 0 min 0 min 321 W/m 22,5 km/h (4 Bft) 100,00 %
27.06.2020 16:10 28,7 C 28,3 C 27,2 C 54 % 1009,1 hPa 0,0 l/m 0 min 0 min 273 W/m 29,0 km/h (5 Bft) 100,00 %
27.06.2020 16:12 28,6 C 28,3 C 27,2 C 54 % 1009,1 hPa 0,0 l/m 0 min 0 min 232 W/m 16,1 km/h (3 Bft) 97,87 %
27.06.2020 16:14 28,6 C 28,3 C 27,2 C 54 % 1009,0 hPa 0,0 l/m 0 min 0 min 251 W/m 19,3 km/h (3 Bft) 97,87 %
27.06.2020 16:16 28,5 C 28,3 C 27,2 C 54 % 1009,0 hPa 0,0 l/m 0 min 0 min 257 W/m 12,9 km/h (3 Bft) 95,74 %
27.06.2020 16:18 28,4 C 27,8 C 27,2 C 53 % 1009,0 hPa 0,0 l/m 0 min 0 min 221 W/m 16,1 km/h (3 Bft) 97,83 %
27.06.2020 16:20 28,4 C 27,2 C 27,2 C 53 % 1009,2 hPa 0,0 l/m 0 min 0 min 196 W/m 38,6 km/h (5 Bft) 97,87 %
27.06.2020 16:22 28,3 C 27,2 C 26,7 C 52 % 1009,1 hPa 0,0 l/m 0 min 0 min 191 W/m 22,5 km/h (4 Bft) 95,74 %
27.06.2020 16:24 28,1 C 27,2 C 26,7 C 53 % 1009,1 hPa 0,0 l/m 0 min 0 min 200 W/m 25,7 km/h (4 Bft) 97,87 %
27.06.2020 16:26 28,1 C 27,2 C 26,7 C 53 % 1009,0 hPa 0,0 l/m 0 min 0 min 211 W/m 22,5 km/h (4 Bft) 97,87 %
27.06.2020 16:28 28,0 C 27,2 C 26,7 C 54 % 1009,1 hPa 0,0 l/m 0 min 0 min 214 W/m 25,7 km/h (4 Bft) 97,87 %
27.06.2020 16:30 27,9 C 27,2 C 26,7 C 54 % 1009,1 hPa 0,0 l/m 0 min 0 min 191 W/m 22,5 km/h (4 Bft) 97,83 %
27.06.2020 16:32 27,9 C 27,2 C 26,7 C 54 % 1009,1 hPa 0,0 l/m 0 min 0 min 207 W/m 16,1 km/h (3 Bft) 97,87 %
27.06.2020 16:34 27,8 C 27,2 C 26,7 C 54 % 1009,0 hPa 0,0 l/m 0 min 0 min 247 W/m 22,5 km/h (4 Bft) 95,74 %
27.06.2020 16:36 27,8 C 26,1 C 26,7 C 54 % 1009,0 hPa 0,0 l/m 0 min 0 min 241 W/m 29,0 km/h (5 Bft) 97,87 %
27.06.2020 16:38 27,7 C 25,0 C 26,1 C 56 % 1009,1 hPa 0,0 l/m 0 min 2 min 183 W/m 22,5 km/h (4 Bft) 97,87 %
27.06.2020 16:40 27,7 C 25,6 C 26,1 C 57 % 1009,0 hPa 0,0 l/m 0 min 2 min 176 W/m 12,9 km/h (3 Bft) 97,83 %
27.06.2020 16:42 27,6 C 26,1 C 26,1 C 57 % 1009,1 hPa 0,0 l/m 0 min 0 min 190 W/m 25,7 km/h (4 Bft) 93,62 %
27.06.2020 16:44 27,5 C 26,1 C 25,6 C 57 % 1009,0 hPa 0,0 l/m 0 min 0 min 192 W/m 16,1 km/h (3 Bft) 97,87 %
27.06.2020 16:46 27,4 C 26,1 C 25,6 C 57 % 1009,1 hPa 0,0 l/m 0 min 0 min 202 W/m 25,7 km/h (4 Bft) 91,49 %
27.06.2020 16:48 27,4 C 25,6 C 25,6 C 59 % 1009,1 hPa 0,0 l/m 0 min 2 min 209 W/m 12,9 km/h (3 Bft) 95,74 %
27.06.2020 16:50 27,3 C 25,0 C 25,6 C 58 % 1009,2 hPa 0,0 l/m 0 min 2 min 206 W/m 25,7 km/h (4 Bft) 95,74 %
27.06.2020 16:52 27,2 C 25,6 C 25,6 C 58 % 1009,2 hPa 0,0 l/m 0 min 0 min 213 W/m 16,1 km/h (3 Bft) 91,30 %
27.06.2020 16:54 27,1 C 26,1 C 25,6 C 58 % 1009,2 hPa 0,0 l/m 0 min 0 min 216 W/m 9,7 km/h (2 Bft) 93,62 %
27.06.2020 16:56 27,0 C 26,1 C 25,6 C 58 % 1009,2 hPa 0,0 l/m 0 min 0 min 220 W/m 29,0 km/h (5 Bft) 95,74 %
27.06.2020 16:58 26,9 C 26,1 C 25,6 C 59 % 1009,3 hPa 0,0 l/m 0 min 0 min 220 W/m 16,1 km/h (3 Bft) 95,74 %
27.06.2020 17:00 26,9 C 26,7 C 25,6 C 59 % 1009,1 hPa 0,0 l/m 0 min 0 min 229 W/m 16,1 km/h (3 Bft) 93,62 %
27.06.2020 17:02 26,9 C 26,7 C 25,6 C 59 % 1009,2 hPa 0,0 l/m 0 min 0 min 250 W/m 16,1 km/h (3 Bft) 91,49 %
27.06.2020 17:04 26,8 C 26,7 C 25,6 C 59 % 1009,1 hPa 0,0 l/m 0 min 0 min 269 W/m 16,1 km/h (3 Bft) 93,48 %
27.06.2020 17:06 26,8 C 27,2 C 25,6 C 59 % 1009,2 hPa 0,0 l/m 0 min 0 min 301 W/m 19,3 km/h (3 Bft) 93,62 %
27.06.2020 17:08 26,8 C 27,2 C 26,1 C 59 % 1009,1 hPa 0,0 l/m 0 min 0 min 284 W/m 38,6 km/h (5 Bft) 93,62 %
27.06.2020 17:10 26,8 C 27,2 C 26,1 C 59 % 1009,2 hPa 0,0 l/m 0 min 0 min 265 W/m 16,1 km/h (3 Bft) 93,62 %
27.06.2020 17:12 26,9 C 26,7 C 26,1 C 59 % 1009,2 hPa 0,0 l/m 0 min 0 min 224 W/m 25,7 km/h (4 Bft) 95,74 %
27.06.2020 17:14 26,9 C 26,7 C 25,6 C 59 % 1009,1 hPa 0,0 l/m 0 min 0 min 144 W/m 25,7 km/h (4 Bft) 95,74 %
27.06.2020 17:16 26,8 C 26,1 C 25,6 C 58 % 1009,1 hPa 0,0 l/m 0 min 0 min 102 W/m 29,0 km/h (5 Bft) 95,65 %
27.06.2020 17:18 26,8 C 26,1 C 25,6 C 59 % 1009,1 hPa 0,0 l/m 0 min 0 min 82 W/m 16,1 km/h (3 Bft) 91,49 %
27.06.2020 17:20 26,8 C 26,1 C 25,6 C 59 % 1009,2 hPa 0,0 l/m 0 min 0 min 71 W/m 22,5 km/h (4 Bft) 91,49 %
27.06.2020 17:22 26,8 C 25,6 C 25,6 C 58 % 1009,2 hPa 0,0 l/m 0 min 0 min 69 W/m 22,5 km/h (4 Bft) 91,49 %
27.06.2020 17:24 26,8 C 25,6 C 25,6 C 58 % 1009,2 hPa 0,0 l/m 0 min 0 min 77 W/m 29,0 km/h (5 Bft) 95,74 %
27.06.2020 17:26 26,7 C 26,1 C 25,6 C 58 % 1009,2 hPa 0,0 l/m 0 min 0 min 87 W/m 12,9 km/h (3 Bft) 96,36 %
27.06.2020 17:28 26,7 C 26,1 C 25,6 C 60 % 1009,2 hPa 0,0 l/m 0 min 0 min 121 W/m 6,4 km/h (2 Bft) 95,74 %
27.06.2020 17:30 26,7 C 26,1 C 25,6 C 60 % 1009,2 hPa 0,0 l/m 0 min 0 min 181 W/m 19,3 km/h (3 Bft) 97,87 %
27.06.2020 17:32 26,7 C 26,1 C 25,6 C 60 % 1009,2 hPa 0,0 l/m 0 min 0 min 206 W/m 6,4 km/h (2 Bft) 93,75 %
27.06.2020 17:34 26,7 C 26,7 C 25,6 C 61 % 1009,2 hPa 0,0 l/m 0 min 0 min 202 W/m 12,9 km/h (3 Bft) 95,65 %
27.06.2020 17:36 26,7 C 26,1 C 25,6 C 61 % 1009,2 hPa 0,0 l/m 0 min 0 min 183 W/m 16,1 km/h (3 Bft) 95,74 %
27.06.2020 17:38 26,7 C 26,1 C 25,6 C 61 % 1009,3 hPa 0,0 l/m 0 min 0 min 166 W/m 16,1 km/h (3 Bft) 95,74 %
27.06.2020 17:40 26,7 C 26,1 C 25,6 C 61 % 1009,3 hPa 0,0 l/m 0 min 0 min 146 W/m 12,9 km/h (3 Bft) 95,74 %
27.06.2020 17:42 26,6 C 26,1 C 25,6 C 61 % 1009,3 hPa 0,0 l/m 0 min 0 min 149 W/m 38,6 km/h (5 Bft) 97,87 %
27.06.2020 17:44 26,6 C 26,1 C 25,6 C 60 % 1009,4 hPa 0,0 l/m 0 min 0 min 188 W/m 25,7 km/h (4 Bft) 97,87 %
27.06.2020 17:46 26,6 C 26,1 C 25,6 C 60 % 1009,4 hPa 0,0 l/m 0 min 0 min 208 W/m 22,5 km/h (4 Bft) 97,83 %
27.06.2020 17:48 26,6 C 26,1 C 25,6 C 59 % 1009,3 hPa 0,0 l/m 0 min 0 min 225 W/m 29,0 km/h (5 Bft) 97,92 %
27.06.2020 17:50 26,6 C 26,7 C 25,6 C 60 % 1009,2 hPa 0,0 l/m 0 min 0 min 209 W/m 22,5 km/h (4 Bft) 95,74 %
27.06.2020 17:52 26,6 C 26,7 C 25,6 C 60 % 1009,2 hPa 0,0 l/m 0 min 0 min 167 W/m 9,7 km/h (2 Bft) 97,92 %
27.06.2020 17:54 26,6 C 26,1 C 25,6 C 60 % 1009,2 hPa 0,0 l/m 0 min 0 min 147 W/m 25,7 km/h (4 Bft) 100,00 %
27.06.2020 17:56 26,6 C 26,1 C 25,6 C 60 % 1009,2 hPa 0,0 l/m 0 min 0 min 136 W/m 25,7 km/h (4 Bft) 100,00 %
27.06.2020 17:58 26,6 C 26,1 C 25,6 C 60 % 1009,2 hPa 0,0 l/m 0 min 0 min 119 W/m 6,4 km/h (2 Bft) 100,00 %
27.06.2020 18:00 26,6 C 25,6 C 25,6 C 60 % 1009,3 hPa 0,0 l/m 0 min 0 min 104 W/m 25,7 km/h (4 Bft) 100,00 %
27.06.2020 18:02 26,5 C 25,6 C 25,6 C 59 % 1009,2 hPa 0,0 l/m 0 min 0 min 96 W/m 19,3 km/h (3 Bft) 97,14 %
27.06.2020 18:04 26,4 C 25,6 C 25,6 C 59 % 1009,5 hPa 0,0 l/m 0 min 0 min 97 W/m 29,0 km/h (5 Bft) 100,00 %
27.06.2020 18:08 26,4 C 26,1 C 25,6 C 59 % 1009,3 hPa 0,0 l/m 0 min 0 min 174 W/m 19,3 km/h (3 Bft) 100,00 %
27.06.2020 18:10 26,4 C 26,1 C 25,6 C 60 % 1009,2 hPa 0,0 l/m 0 min 0 min 207 W/m 6,4 km/h (2 Bft) 100,00 %
27.06.2020 18:12 26,4 C 26,1 C 25,6 C 59 % 1009,3 hPa 0,0 l/m 0 min 0 min 170 W/m 29,0 km/h (5 Bft) 100,00 %
27.06.2020 18:14 26,4 C 26,1 C 25,6 C 60 % 1009,3 hPa 0,0 l/m 0 min 0 min 119 W/m 16,1 km/h (3 Bft) 100,00 %
27.06.2020 18:16 26,4 C 25,6 C 25,0 C 60 % 1009,2 hPa 0,0 l/m 0 min 0 min 96 W/m 16,1 km/h (3 Bft) 100,00 %
27.06.2020 18:18 26,4 C 25,6 C 25,0 C 59 % 1009,2 hPa 0,0 l/m 0 min 0 min 92 W/m 22,5 km/h (4 Bft) 100,00 %
27.06.2020 18:20 26,3 C 25,6 C 25,0 C 60 % 1009,2 hPa 0,0 l/m 0 min 0 min 94 W/m 19,3 km/h (3 Bft) 100,00 %
27.06.2020 18:22 26,3 C 25,6 C 25,0 C 60 % 1009,2 hPa 0,0 l/m 0 min 0 min 85 W/m 45,1 km/h (6 Bft) 100,00 %
27.06.2020 18:24 26,3 C 25,6 C 25,0 C 60 % 1009,2 hPa 0,0 l/m 0 min 0 min 85 W/m 12,9 km/h (3 Bft) 100,00 %
27.06.2020 18:26 26,2 C 25,0 C 25,0 C 60 % 1009,2 hPa 0,0 l/m 0 min 0 min 84 W/m 9,7 km/h (2 Bft) 100,00 %
27.06.2020 18:28 26,2 C 25,6 C 25,0 C 60 % 1009,3 hPa 0,0 l/m 0 min 0 min 96 W/m 22,5 km/h (4 Bft) 100,00 %
27.06.2020 18:30 26,2 C 25,6 C 25,0 C 60 % 1009,2 hPa 0,0 l/m 0 min 0 min 114 W/m 32,2 km/h (5 Bft) 100,00 %
27.06.2020 18:32 26,1 C 25,6 C 25,0 C 60 % 1009,3 hPa 0,0 l/m 0 min 0 min 145 W/m 29,0 km/h (5 Bft) 100,00 %
27.06.2020 18:34 26,1 C 25,6 C 25,0 C 60 % 1009,3 hPa 0,0 l/m 0 min 0 min 163 W/m 32,2 km/h (5 Bft) 100,00 %
27.06.2020 18:36 26,1 C 25,6 C 25,0 C 60 % 1009,2 hPa 0,0 l/m 0 min 0 min 158 W/m 32,2 km/h (5 Bft) 100,00 %
27.06.2020 18:38 26,1 C 25,6 C 25,0 C 61 % 1009,2 hPa 0,0 l/m 0 min 0 min 167 W/m 22,5 km/h (4 Bft) 97,83 %
27.06.2020 18:40 26,1 C 26,7 C 25,0 C 61 % 1009,2 hPa 0,0 l/m 2 min 0 min 327 W/m 22,5 km/h (4 Bft) 100,00 %
27.06.2020 18:42 26,1 C 27,2 C 25,0 C 61 % 1009,1 hPa 0,0 l/m 2 min 0 min 460 W/m 22,5 km/h (4 Bft) 100,00 %
27.06.2020 18:44 26,2 C 27,2 C 25,0 C 62 % 1009,2 hPa 0,0 l/m 2 min 0 min 444 W/m 16,1 km/h (3 Bft) 100,00 %
27.06.2020 18:46 26,3 C 26,7 C 25,0 C 61 % 1009,3 hPa 0,0 l/m 2 min 0 min 429 W/m 35,4 km/h (5 Bft) 100,00 %
27.06.2020 18:48 26,3 C 26,1 C 25,0 C 61 % 1009,2 hPa 0,0 l/m 2 min 0 min 228 W/m 25,7 km/h (4 Bft) 100,00 %
27.06.2020 18:50 26,3 C 25,6 C 25,0 C 61 % 1009,2 hPa 0,0 l/m 0 min 0 min 99 W/m 16,1 km/h (3 Bft) 100,00 %
27.06.2020 18:52 26,3 C 25,6 C 25,0 C 61 % 1009,1 hPa 0,0 l/m 0 min 0 min 88 W/m 29,0 km/h (5 Bft) 100,00 %
27.06.2020 18:54 26,3 C 25,0 C 25,0 C 61 % 1009,2 hPa 0,0 l/m 0 min 0 min 84 W/m 25,7 km/h (4 Bft) 100,00 %
27.06.2020 18:56 26,2 C 25,0 C 24,4 C 61 % 1009,0 hPa 0,0 l/m 0 min 0 min 83 W/m 25,7 km/h (4 Bft) 100,00 %
27.06.2020 18:58 26,2 C 25,0 C 24,4 C 61 % 1009,2 hPa 0,0 l/m 0 min 0 min 101 W/m 16,1 km/h (3 Bft) 100,00 %
27.06.2020 19:00 26,2 C 25,0 C 24,4 C 62 % 1009,3 hPa 0,0 l/m 0 min 0 min 117 W/m 25,7 km/h (4 Bft) 100,00 %
27.06.2020 19:02 26,1 C 25,6 C 24,4 C 62 % 1009,2 hPa 0,0 l/m 0 min 0 min 152 W/m 25,7 km/h (4 Bft) 100,00 %
27.06.2020 19:04 26,1 C 26,1 C 25,0 C 62 % 1009,1 hPa 0,0 l/m 2 min 0 min 290 W/m 22,5 km/h (4 Bft) 100,00 %
27.06.2020 19:06 26,2 C 26,1 C 25,0 C 62 % 1009,1 hPa 0,0 l/m 2 min 0 min 388 W/m 35,4 km/h (5 Bft) 100,00 %
27.06.2020 19:08 26,2 C 26,1 C 25,0 C 61 % 1009,2 hPa 0,0 l/m 2 min 0 min 372 W/m 16,1 km/h (3 Bft) 100,00 %
27.06.2020 19:10 26,2 C 26,1 C 25,0 C 61 % 1009,3 hPa 0,0 l/m 2 min 0 min 372 W/m 25,7 km/h (4 Bft) 100,00 %
27.06.2020 19:12 26,3 C 26,7 C 25,0 C 61 % 1009,3 hPa 0,0 l/m 2 min 0 min 358 W/m 9,7 km/h (2 Bft) 100,00 %
27.06.2020 19:14 26,3 C 26,7 C 25,0 C 62 % 1009,2 hPa 0,0 l/m 2 min 0 min 371 W/m 16,1 km/h (3 Bft) 100,00 %
27.06.2020 19:16 26,4 C 26,1 C 25,0 C 62 % 1009,2 hPa 0,0 l/m 2 min 0 min 360 W/m 12,9 km/h (3 Bft) 97,87 %
27.06.2020 19:18 26,4 C 26,1 C 25,0 C 62 % 1009,2 hPa 0,0 l/m 0 min 0 min 183 W/m 19,3 km/h (3 Bft) 97,87 %
27.06.2020 19:20 26,4 C 26,1 C 25,0 C 61 % 1009,3 hPa 0,0 l/m 2 min 0 min 289 W/m 12,9 km/h (3 Bft) 97,87 %
27.06.2020 19:22 26,4 C 25,6 C 24,4 C 61 % 1009,3 hPa 0,0 l/m 0 min 0 min 141 W/m 25,7 km/h (4 Bft) 93,62 %
27.06.2020 19:24 26,3 C 25,6 C 24,4 C 61 % 1009,3 hPa 0,0 l/m 0 min 0 min 163 W/m 22,5 km/h (4 Bft) 95,65 %
27.06.2020 19:26 26,3 C 25,6 C 24,4 C 61 % 1009,3 hPa 0,0 l/m 0 min 0 min 164 W/m 9,7 km/h (2 Bft) 95,74 %
27.06.2020 19:28 26,3 C 26,1 C 24,4 C 62 % 1009,4 hPa 0,0 l/m 2 min 0 min 179 W/m 25,7 km/h (4 Bft) 95,74 %
27.06.2020 19:30 26,3 C 26,1 C 24,4 C 62 % 1009,3 hPa 0,0 l/m 2 min 0 min 220 W/m 25,7 km/h (4 Bft) 95,74 %
27.06.2020 19:32 26,3 C 25,6 C 24,4 C 61 % 1009,4 hPa 0,0 l/m 2 min 0 min 178 W/m 25,7 km/h (4 Bft) 97,87 %
27.06.2020 19:34 26,3 C 25,6 C 24,4 C 61 % 1009,4 hPa 0,0 l/m 2 min 0 min 170 W/m 19,3 km/h (3 Bft) 95,65 %
27.06.2020 19:36 26,2 C 25,6 C 24,4 C 61 % 1009,4 hPa 0,0 l/m 0 min 0 min 132 W/m 22,5 km/h (4 Bft) 95,74 %
27.06.2020 19:38 26,2 C 25,6 C 24,4 C 61 % 1009,4 hPa 0,0 l/m 0 min 0 min 119 W/m 19,3 km/h (3 Bft) 93,62 %
27.06.2020 19:40 26,2 C 25,6 C 24,4 C 61 % 1009,4 hPa 0,0 l/m 0 min 0 min 142 W/m 16,1 km/h (3 Bft) 95,74 %
27.06.2020 19:42 26,2 C 25,0 C 24,4 C 61 % 1009,4 hPa 0,0 l/m 0 min 0 min 101 W/m 16,1 km/h (3 Bft) 93,62 %
27.06.2020 19:44 26,1 C 25,0 C 24,4 C 61 % 1009,4 hPa 0,0 l/m 0 min 0 min 84 W/m 19,3 km/h (3 Bft) 95,74 %
27.06.2020 19:46 26,0 C 25,0 C 24,4 C 62 % 1009,3 hPa 0,0 l/m 0 min 0 min 77 W/m 3,2 km/h (1 Bft) 93,48 %
27.06.2020 19:48 26,0 C 24,4 C 24,4 C 62 % 1009,3 hPa 0,0 l/m 0 min 0 min 92 W/m 12,9 km/h (3 Bft) 95,74 %
27.06.2020 19:50 25,9 C 24,4 C 24,4 C 62 % 1009,4 hPa 0,0 l/m 0 min 0 min 49 W/m 25,7 km/h (4 Bft) 94,83 %
27.06.2020 19:52 25,8 C 24,4 C 23,9 C 62 % 1009,3 hPa 0,0 l/m 0 min 0 min 46 W/m 25,7 km/h (4 Bft) 93,62 %
27.06.2020 19:54 25,8 C 23,9 C 23,9 C 61 % 1009,4 hPa 0,0 l/m 0 min 0 min 45 W/m 38,6 km/h (5 Bft) 95,65 %
27.06.2020 19:56 25,7 C 23,9 C 23,9 C 62 % 1009,4 hPa 0,0 l/m 0 min 0 min 62 W/m 22,5 km/h (4 Bft) 93,62 %
27.06.2020 19:58 25,6 C 23,9 C 23,9 C 62 % 1009,4 hPa 0,0 l/m 0 min 0 min 55 W/m 12,9 km/h (3 Bft) 97,87 %
27.06.2020 20:00 25,6 C 23,9 C 23,9 C 62 % 1009,4 hPa 0,0 l/m 0 min 0 min 55 W/m 25,7 km/h (4 Bft) 100,00 %
27.06.2020 20:02 25,5 C 23,9 C 23,9 C 62 % 1009,5 hPa 0,0 l/m 0 min 0 min 54 W/m 29,0 km/h (5 Bft) 97,22 %
27.06.2020 20:04 25,4 C 23,9 C 23,3 C 61 % 1009,6 hPa 0,0 l/m 0 min 0 min 59 W/m 29,0 km/h (5 Bft) 95,74 %
27.06.2020 20:06 25,3 C 23,9 C 23,3 C 62 % 1009,5 hPa 0,0 l/m 0 min 0 min 62 W/m 22,5 km/h (4 Bft) 95,74 %
27.06.2020 20:08 25,2 C 23,9 C 23,9 C 62 % 1009,6 hPa 0,0 l/m 0 min 0 min 64 W/m 16,1 km/h (3 Bft) 98,28 %
27.06.2020 20:10 25,2 C 23,9 C 23,9 C 62 % 1009,6 hPa 0,0 l/m 0 min 0 min 61 W/m 25,7 km/h (4 Bft) 97,14 %
27.06.2020 20:12 25,2 C 23,9 C 23,9 C 62 % 1009,6 hPa 0,0 l/m 0 min 0 min 56 W/m 29,0 km/h (5 Bft) 96,61 %
27.06.2020 20:14 25,2 C 23,9 C 23,9 C 62 % 1009,7 hPa 0,0 l/m 0 min 0 min 54 W/m 29,0 km/h (5 Bft) 97,87 %
27.06.2020 20:16 25,2 C 23,9 C 23,9 C 62 % 1009,8 hPa 0,0 l/m 0 min 0 min 52 W/m 22,5 km/h (4 Bft) 95,74 %
27.06.2020 20:18 25,1 C 23,9 C 23,3 C 63 % 1009,6 hPa 0,0 l/m 0 min 0 min 53 W/m 22,5 km/h (4 Bft) 97,83 %
27.06.2020 20:20 25,1 C 23,9 C 23,3 C 63 % 1009,7 hPa 0,0 l/m 0 min 0 min 47 W/m 16,1 km/h (3 Bft) 97,87 %
27.06.2020 20:22 25,1 C 23,9 C 23,3 C 63 % 1009,8 hPa 0,0 l/m 0 min 0 min 48 W/m 16,1 km/h (3 Bft) 97,87 %
27.06.2020 20:24 25,0 C 23,9 C 23,3 C 64 % 1009,7 hPa 0,0 l/m 0 min 0 min 59 W/m 16,1 km/h (3 Bft) 95,74 %
27.06.2020 20:26 25,0 C 23,9 C 23,3 C 64 % 1009,8 hPa 0,0 l/m 0 min 0 min 69 W/m 29,0 km/h (5 Bft) 97,87 %
27.06.2020 20:28 25,0 C 23,9 C 23,3 C 64 % 1009,8 hPa 0,0 l/m 0 min 0 min 71 W/m 19,3 km/h (3 Bft) 97,87 %
27.06.2020 20:30 24,9 C 23,9 C 23,3 C 64 % 1009,8 hPa 0,0 l/m 0 min 0 min 66 W/m 22,5 km/h (4 Bft) 97,83 %
27.06.2020 20:32 24,9 C 23,9 C 23,3 C 64 % 1009,8 hPa 0,0 l/m 0 min 0 min 62 W/m 25,7 km/h (4 Bft) 97,22 %
27.06.2020 20:34 24,9 C 23,9 C 23,3 C 64 % 1009,8 hPa 0,0 l/m 0 min 0 min 57 W/m 19,3 km/h (3 Bft) 93,48 %
27.06.2020 20:36 24,9 C 23,9 C 23,3 C 65 % 1009,8 hPa 0,0 l/m 0 min 0 min 55 W/m 16,1 km/h (3 Bft) 97,87 %
27.06.2020 20:38 24,9 C 23,9 C 23,3 C 65 % 1009,9 hPa 0,0 l/m 0 min 0 min 49 W/m 25,7 km/h (4 Bft) 97,87 %
27.06.2020 20:40 24,9 C 23,9 C 23,3 C 65 % 1009,9 hPa 0,0 l/m 0 min 0 min 46 W/m 22,5 km/h (4 Bft) 97,87 %
27.06.2020 20:42 24,8 C 23,9 C 23,3 C 65 % 1009,8 hPa 0,0 l/m 0 min 0 min 46 W/m 32,2 km/h (5 Bft) 97,87 %
27.06.2020 20:44 24,8 C 23,3 C 23,3 C 65 % 1009,9 hPa 0,0 l/m 0 min 0 min 47 W/m 19,3 km/h (3 Bft) 97,83 %
27.06.2020 20:46 24,8 C 23,3 C 23,3 C 65 % 1009,9 hPa 0,0 l/m 0 min 0 min 46 W/m 35,4 km/h (5 Bft) 97,87 %
27.06.2020 20:48 24,7 C 23,3 C 23,3 C 65 % 1009,8 hPa 0,0 l/m 0 min 0 min 46 W/m 32,2 km/h (5 Bft) 97,87 %
27.06.2020 20:50 24,7 C 23,3 C 23,3 C 65 % 1009,8 hPa 0,0 l/m 0 min 0 min 44 W/m 25,7 km/h (4 Bft) 97,87 %
27.06.2020 20:52 24,7 C 23,3 C 23,3 C 65 % 1009,8 hPa 0,0 l/m 0 min 0 min 43 W/m 29,0 km/h (5 Bft) 95,74 %
27.06.2020 20:54 24,6 C 23,3 C 23,3 C 65 % 1009,9 hPa 0,0 l/m 0 min 0 min 42 W/m 22,5 km/h (4 Bft) 97,87 %
27.06.2020 20:56 24,6 C 23,3 C 23,3 C 65 % 1009,9 hPa 0,0 l/m 0 min 0 min 40 W/m 19,3 km/h (3 Bft) 95,65 %
27.06.2020 20:58 24,6 C 23,3 C 23,3 C 65 % 1009,9 hPa 0,0 l/m 0 min 0 min 39 W/m 25,7 km/h (4 Bft) 97,87 %
27.06.2020 21:00 24,6 C 23,3 C 22,8 C 65 % 1009,9 hPa 0,0 l/m 0 min 0 min 39 W/m 22,5 km/h (4 Bft) 97,87 %
27.06.2020 21:02 24,6 C 23,3 C 22,8 C 65 % 1009,9 hPa 0,0 l/m 0 min 0 min 35 W/m 19,3 km/h (3 Bft) 95,74 %
27.06.2020 21:04 24,5 C 23,3 C 22,8 C 66 % 1009,8 hPa 0,0 l/m 0 min 0 min 33 W/m 25,7 km/h (4 Bft) 93,62 %
27.06.2020 21:06 24,5 C 23,3 C 22,8 C 66 % 1009,9 hPa 0,0 l/m 0 min 0 min 30 W/m 16,1 km/h (3 Bft) 97,87 %
27.06.2020 21:08 24,4 C 23,3 C 22,8 C 66 % 1009,9 hPa 0,0 l/m 0 min 0 min 27 W/m 19,3 km/h (3 Bft) 97,83 %
27.06.2020 21:10 24,4 C 23,3 C 22,8 C 66 % 1009,8 hPa 0,0 l/m 0 min 0 min 25 W/m 22,5 km/h (4 Bft) 100,00 %
27.06.2020 21:12 24,4 C 23,3 C 22,8 C 66 % 1009,8 hPa 0,0 l/m 0 min 0 min 24 W/m 19,3 km/h (3 Bft) 97,87 %
27.06.2020 21:14 24,4 C 22,8 C 22,8 C 66 % 1009,8 hPa 0,0 l/m 0 min 0 min 22 W/m 25,7 km/h (4 Bft) 100,00 %
27.06.2020 21:16 24,3 C 22,8 C 22,8 C 66 % 1009,9 hPa 0,0 l/m 0 min 0 min 20 W/m 19,3 km/h (3 Bft) 97,87 %
27.06.2020 21:18 24,3 C 22,8 C 22,8 C 66 % 1009,8 hPa 0,0 l/m 0 min 0 min 19 W/m 19,3 km/h (3 Bft) 100,00 %
27.06.2020 21:20 24,3 C 22,8 C 22,8 C 66 % 1009,9 hPa 0,0 l/m 0 min 0 min 18 W/m 22,5 km/h (4 Bft) 100,00 %
27.06.2020 21:22 24,3 C 22,8 C 22,8 C 66 % 1009,9 hPa 0,0 l/m 0 min 0 min 15 W/m 12,9 km/h (3 Bft) 97,87 %
27.06.2020 21:24 24,2 C 22,8 C 22,8 C 66 % 1009,9 hPa 0,0 l/m 0 min 0 min 13 W/m 16,1 km/h (3 Bft) 100,00 %
27.06.2020 21:26 24,2 C 22,8 C 22,8 C 66 % 1009,9 hPa 0,0 l/m 0 min 0 min 12 W/m 22,5 km/h (4 Bft) 100,00 %
27.06.2020 21:28 24,2 C 22,8 C 22,8 C 67 % 1009,9 hPa 0,0 l/m 0 min 0 min 11 W/m 19,3 km/h (3 Bft) 97,87 %
27.06.2020 21:30 24,1 C 22,8 C 22,8 C 67 % 1009,9 hPa 0,0 l/m 0 min 0 min 9 W/m 19,3 km/h (3 Bft) 100,00 %
27.06.2020 21:32 24,1 C 22,8 C 22,8 C 67 % 1009,9 hPa 0,0 l/m 0 min 0 min 8 W/m 9,7 km/h (2 Bft) 100,00 %
27.06.2020 21:34 24,1 C 22,8 C 22,8 C 67 % 1009,9 hPa 0,0 l/m 0 min 0 min 7 W/m 25,7 km/h (4 Bft) 100,00 %
27.06.2020 21:36 24,0 C 22,8 C 22,8 C 67 % 1009,9 hPa 0,0 l/m 0 min 0 min 7 W/m 38,6 km/h (5 Bft) 100,00 %
27.06.2020 21:38 24,0 C 22,8 C 22,2 C 67 % 1010,0 hPa 0,0 l/m 0 min 0 min 7 W/m 22,5 km/h (4 Bft) 100,00 %
27.06.2020 21:40 23,9 C 22,8 C 22,2 C 67 % 1009,9 hPa 0,0 l/m 0 min 0 min 5 W/m 12,9 km/h (3 Bft) 100,00 %
27.06.2020 21:42 23,9 C 22,8 C 22,2 C 67 % 1010,0 hPa 0,0 l/m 0 min 0 min 5 W/m 12,9 km/h (3 Bft) 100,00 %
27.06.2020 21:44 23,9 C 22,8 C 22,2 C 67 % 1009,9 hPa 0,0 l/m 0 min 0 min 5 W/m 25,7 km/h (4 Bft) 100,00 %
27.06.2020 21:46 23,9 C 22,2 C 22,2 C 67 % 1009,9 hPa 0,0 l/m 0 min 0 min 1 W/m 12,9 km/h (3 Bft) 97,87 %
27.06.2020 21:48 23,8 C 22,2 C 22,2 C 67 % 1009,9 hPa 0,0 l/m 0 min 0 min 0 W/m 6,4 km/h (2 Bft) 95,74 %
27.06.2020 21:50 23,8 C 22,2 C 22,2 C 67 % 1010,0 hPa 0,0 l/m 0 min 0 min 0 W/m 12,9 km/h (3 Bft) 97,87 %
27.06.2020 21:52 23,8 C 22,2 C 22,2 C 67 % 1010,1 hPa 0,0 l/m 0 min 0 min 0 W/m 16,1 km/h (3 Bft) 98,21 %
27.06.2020 21:54 23,7 C 22,2 C 22,2 C 67 % 1010,1 hPa 0,0 l/m 0 min 0 min 0 W/m 19,3 km/h (3 Bft) 95,74 %
27.06.2020 21:56 23,7 C 22,2 C 22,2 C 67 % 1010,0 hPa 0,0 l/m 0 min 0 min 0 W/m 16,1 km/h (3 Bft) 97,87 %
27.06.2020 21:58 23,7 C 22,2 C 22,2 C 68 % 1010,1 hPa 0,0 l/m 0 min 0 min 0 W/m 12,9 km/h (3 Bft) 97,87 %
27.06.2020 22:00 23,6 C 22,2 C 22,2 C 67 % 1010,1 hPa 0,0 l/m 0 min 0 min 0 W/m 19,3 km/h (3 Bft) 97,87 %
27.06.2020 22:02 23,6 C 22,2 C 22,2 C 68 % 1010,1 hPa 0,0 l/m 0 min 0 min 0 W/m 19,3 km/h (3 Bft) 97,83 %
27.06.2020 22:04 23,6 C 22,2 C 22,2 C 68 % 1010,2 hPa 0,0 l/m 0 min 0 min 0 W/m 16,1 km/h (3 Bft) 97,87 %
27.06.2020 22:06 23,6 C 22,2 C 21,7 C 68 % 1010,2 hPa 0,0 l/m 0 min 0 min 0 W/m 9,7 km/h (2 Bft) 100,00 %
27.06.2020 22:08 23,5 C 22,2 C 21,7 C 68 % 1010,2 hPa 0,0 l/m 0 min 0 min 0 W/m 19,3 km/h (3 Bft) 97,87 %
27.06.2020 22:10 23,5 C 22,2 C 21,7 C 68 % 1010,3 hPa 0,0 l/m 0 min 0 min 0 W/m 9,7 km/h (2 Bft) 95,74 %
27.06.2020 22:12 23,4 C 22,2 C 21,7 C 68 % 1010,2 hPa 0,0 l/m 0 min 0 min 0 W/m 6,4 km/h (2 Bft) 95,74 %
27.06.2020 22:14 23,4 C 22,2 C 21,7 C 68 % 1010,3 hPa 0,0 l/m 0 min 0 min 0 W/m 3,2 km/h (1 Bft) 97,83 %
27.06.2020 22:16 23,4 C 21,7 C 21,7 C 68 % 1010,3 hPa 0,0 l/m 0 min 0 min 0 W/m 6,4 km/h (2 Bft) 97,87 %
27.06.2020 22:18 23,4 C 21,7 C 21,7 C 69 % 1010,3 hPa 0,0 l/m 0 min 0 min 0 W/m 12,9 km/h (3 Bft) 97,87 %
27.06.2020 22:20 23,4 C 22,2 C 21,7 C 69 % 1010,3 hPa 0,0 l/m 0 min 0 min 0 W/m 12,9 km/h (3 Bft) 97,87 %
27.06.2020 22:22 23,3 C 22,2 C 21,7 C 69 % 1010,3 hPa 0,0 l/m 0 min 0 min 0 W/m 16,1 km/h (3 Bft) 97,87 %
27.06.2020 22:24 23,3 C 22,2 C 21,7 C 69 % 1010,3 hPa 0,0 l/m 0 min 0 min 0 W/m 6,4 km/h (2 Bft) 97,83 %
27.06.2020 22:26 23,3 C 22,2 C 21,7 C 69 % 1010,2 hPa 0,0 l/m 0 min 0 min 0 W/m 12,9 km/h (3 Bft) 95,74 %
27.06.2020 22:28 23,3 C 21,7 C 21,7 C 70 % 1010,2 hPa 0,0 l/m 0 min 0 min 0 W/m 3,2 km/h (1 Bft) 95,74 %
27.06.2020 22:30 23,3 C 21,7 C 21,7 C 70 % 1010,3 hPa 0,0 l/m 0 min 0 min 0 W/m 6,4 km/h (2 Bft) 97,87 %
27.06.2020 22:32 23,2 C 21,7 C 21,7 C 70 % 1010,3 hPa 0,0 l/m 0 min 0 min 0 W/m 6,4 km/h (2 Bft) 97,87 %
27.06.2020 22:34 23,2 C 21,7 C 21,7 C 70 % 1010,3 hPa 0,0 l/m 0 min 0 min 0 W/m 12,9 km/h (3 Bft) 100,00 %
27.06.2020 22:36 23,2 C 21,7 C 21,7 C 70 % 1010,3 hPa 0,0 l/m 0 min 0 min 0 W/m 9,7 km/h (2 Bft) 97,83 %
27.06.2020 22:38 23,2 C 21,7 C 21,7 C 70 % 1010,4 hPa 0,0 l/m 0 min 0 min 0 W/m 12,9 km/h (3 Bft) 97,87 %
27.06.2020 22:40 23,2 C 21,7 C 21,7 C 70 % 1010,4 hPa 0,0 l/m 0 min 0 min 0 W/m 16,1 km/h (3 Bft) 97,87 %
27.06.2020 22:42 23,1 C 21,7 C 21,7 C 71 % 1010,4 hPa 0,0 l/m 0 min 0 min 0 W/m 12,9 km/h (3 Bft) 97,87 %
27.06.2020 22:44 23,1 C 21,7 C 21,7 C 70 % 1010,3 hPa 0,0 l/m 0 min 0 min 0 W/m 16,1 km/h (3 Bft) 97,87 %
27.06.2020 22:46 23,1 C 21,7 C 21,7 C 71 % 1010,3 hPa 0,0 l/m 0 min 0 min 0 W/m 12,9 km/h (3 Bft) 93,62 %
27.06.2020 22:48 23,1 C 21,7 C 21,7 C 71 % 1010,2 hPa 0,0 l/m 0 min 0 min 0 W/m 12,9 km/h (3 Bft) 97,83 %
27.06.2020 22:50 23,1 C 21,7 C 21,7 C 71 % 1010,2 hPa 0,0 l/m 0 min 0 min 0 W/m 6,4 km/h (2 Bft) 97,87 %
27.06.2020 22:52 23,0 C 21,7 C 21,1 C 71 % 1010,2 hPa 0,0 l/m 0 min 0 min 0 W/m 16,1 km/h (3 Bft) 97,87 %
27.06.2020 22:54 23,0 C 21,7 C 21,1 C 71 % 1010,2 hPa 0,0 l/m 0 min 0 min 0 W/m 12,9 km/h (3 Bft) 97,87 %
27.06.2020 22:56 22,9 C 21,7 C 21,1 C 71 % 1010,2 hPa 0,0 l/m 0 min 0 min 0 W/m 16,1 km/h (3 Bft) 97,87 %
27.06.2020 22:58 22,9 C 21,1 C 21,1 C 71 % 1010,3 hPa 0,0 l/m 0 min 0 min 0 W/m 6,4 km/h (2 Bft) 95,74 %
27.06.2020 23:00 22,9 C 21,1 C 21,1 C 71 % 1010,3 hPa 0,0 l/m 0 min 0 min 0 W/m 3,2 km/h (1 Bft) 97,83 %
27.06.2020 23:02 22,9 C 21,1 C 21,1 C 71 % 1010,3 hPa 0,0 l/m 0 min 0 min 0 W/m 6,4 km/h (2 Bft) 93,75 %
27.06.2020 23:04 22,8 C 21,1 C 21,1 C 71 % 1010,3 hPa 0,0 l/m 0 min 0 min 0 W/m 16,1 km/h (3 Bft) 95,65 %
27.06.2020 23:06 22,8 C 21,1 C 21,1 C 71 % 1010,2 hPa 0,0 l/m 0 min 0 min 0 W/m 12,9 km/h (3 Bft) 97,87 %
27.06.2020 23:08 22,8 C 21,1 C 21,1 C 72 % 1010,2 hPa 0,0 l/m 0 min 0 min 0 W/m 3,2 km/h (1 Bft) 95,74 %
27.06.2020 23:10 22,8 C 21,1 C 21,1 C 72 % 1010,2 hPa 0,0 l/m 0 min 0 min 0 W/m 0,0 km/h (0 Bft) 93,62 %
27.06.2020 23:12 22,7 C 21,1 C 21,1 C 72 % 1010,2 hPa 0,0 l/m 0 min 0 min 0 W/m 6,4 km/h (2 Bft) 93,62 %
27.06.2020 23:14 22,7 C 21,1 C 21,1 C 72 % 1010,2 hPa 0,0 l/m 0 min 0 min 0 W/m 3,2 km/h (1 Bft) 95,65 %
27.06.2020 23:16 22,7 C 21,1 C 21,1 C 72 % 1010,2 hPa 0,0 l/m 0 min 0 min 0 W/m 6,4 km/h (2 Bft) 97,87 %
27.06.2020 23:18 22,7 C 21,1 C 21,1 C 72 % 1010,2 hPa 0,0 l/m 0 min 0 min 0 W/m 6,4 km/h (2 Bft) 97,87 %
27.06.2020 23:20 22,6 C 21,1 C 21,1 C 72 % 1010,2 hPa 0,0 l/m 0 min 0 min 0 W/m 3,2 km/h (1 Bft) 95,74 %
27.06.2020 23:22 22,6 C 21,1 C 21,1 C 72 % 1010,3 hPa 0,0 l/m 0 min 0 min 0 W/m 3,2 km/h (1 Bft) 95,74 %
27.06.2020 23:24 22,6 C 21,1 C 21,1 C 72 % 1010,2 hPa 0,0 l/m 0 min 0 min 0 W/m 6,4 km/h (2 Bft) 95,65 %
27.06.2020 23:26 22,6 C 21,1 C 21,1 C 72 % 1010,2 hPa 0,0 l/m 0 min 0 min 0 W/m 6,4 km/h (2 Bft) 95,74 %
27.06.2020 23:28 22,6 C 21,1 C 21,1 C 72 % 1010,2 hPa 0,0 l/m 0 min 0 min 0 W/m 6,4 km/h (2 Bft) 95,74 %
27.06.2020 23:30 22,5 C 21,1 C 21,1 C 72 % 1010,2 hPa 0,0 l/m 0 min 0 min 0 W/m 3,2 km/h (1 Bft) 95,74 %
27.06.2020 23:32 22,5 C 21,1 C 21,1 C 73 % 1010,2 hPa 0,0 l/m 0 min 0 min 0 W/m 12,9 km/h (3 Bft) 95,74 %
27.06.2020 23:34 22,4 C 21,1 C 21,1 C 73 % 1010,2 hPa 0,0 l/m 0 min 0 min 0 W/m 6,4 km/h (2 Bft) 95,74 %
27.06.2020 23:36 22,4 C 21,1 C 21,1 C 73 % 1010,3 hPa 0,0 l/m 0 min 0 min 0 W/m 3,2 km/h (1 Bft) 93,48 %
27.06.2020 23:38 22,4 C 21,1 C 21,1 C 73 % 1010,3 hPa 0,0 l/m 0 min 0 min 0 W/m 6,4 km/h (2 Bft) 95,74 %
27.06.2020 23:40 22,4 C 21,1 C 21,1 C 73 % 1010,3 hPa 0,0 l/m 0 min 0 min 0 W/m 6,4 km/h (2 Bft) 97,87 %
27.06.2020 23:42 22,3 C 21,1 C 21,1 C 73 % 1010,3 hPa 0,0 l/m 0 min 0 min 0 W/m 3,2 km/h (1 Bft) 97,87 %
27.06.2020 23:44 22,3 C 21,1 C 21,1 C 73 % 1010,2 hPa 0,0 l/m 0 min 0 min 0 W/m 3,2 km/h (1 Bft) 97,87 %
27.06.2020 23:46 22,3 C 21,1 C 21,1 C 73 % 1010,3 hPa 0,0 l/m 0 min 0 min 0 W/m 3,2 km/h (1 Bft) 95,74 %
27.06.2020 23:48 22,3 C 21,1 C 21,1 C 73 % 1010,3 hPa 0,0 l/m 0 min 0 min 0 W/m 9,7 km/h (2 Bft) 95,65 %
27.06.2020 23:50 22,3 C 21,1 C 21,1 C 73 % 1010,3 hPa 0,0 l/m 0 min 0 min 0 W/m 3,2 km/h (1 Bft) 93,62 %
27.06.2020 23:52 22,3 C 21,1 C 21,1 C 74 % 1010,3 hPa 0,0 l/m 0 min 0 min 0 W/m 3,2 km/h (1 Bft) 95,74 %
27.06.2020 23:54 22,3 C 21,1 C 21,1 C 74 % 1010,3 hPa 0,0 l/m 0 min 0 min 0 W/m 6,4 km/h (2 Bft) 97,73 %
27.06.2020 23:56 22,3 C 21,1 C 21,1 C 74 % 1010,2 hPa 0,0 l/m 0 min 0 min 0 W/m 9,7 km/h (2 Bft) 95,74 %
27.06.2020 23:58 22,3 C 21,1 C 21,1 C 74 % 1010,2 hPa 0,0 l/m 0 min 0 min 0 W/m 6,4 km/h (2 Bft) 95,74 %
_ Min-Zeit 05:54 01:26 05:10 15:44 15:08 - - - - 00:02 11:32
Minimum _ 19,6 C 18,3 C 18,3 C 51 % 1009,0 hPa - - - - 0,0 km/h (0 Bft) 89,36 %
_ Max-Zeit 15:44 15:26 12:46 05:58 00:00 00:00 12:08 00:08 12:54 15:16 00:10
Maximum _ 29,4 C 33,3 C 30,0 C 89 % 1010,8 hPa 0,0 l/m 4 min 4 min 1076 W/m 51,5 km/h
S (7 Bft)
100,00 %
Durchschnitt _ 23,8 C 23,6 C 22,8 C 72 % 1009,8 hPa #0,0 l/m #4:44 h #1:02 h 308 W/m 13,3 km/h (3 Bft) 97,46 %
© 2020 W. Hausmann